Time,TemperatureF,DewpointF,PressureIn,WindDirection,WindDirectionDegrees,WindSpeedMPH,WindSpeedGustMPH,Humidity,HourlyPrecipIn,Conditions,Clouds,dailyrainin,SoftwareType,DateUTC
2013-08-13 00:01:00,69.4,64.4,29.86,ENE,65,0.0,0.0,84,0.00,,SCT,0.00,WeatherDisplay:10.37,2013-08-13 04:01:00,
2013-08-13 00:02:00,69.4,64.4,29.86,ENE,65,0.0,0.0,84,0.00,,SCT,0.00,WeatherDisplay:10.37,2013-08-13 04:02:00,
2013-08-13 00:05:00,69.4,64.4,29.86,ENE,65,0.0,0.0,84,0.00,,SCT,0.00,WeatherDisplay:10.37,2013-08-13 04:05:00,
2013-08-13 00:06:00,69.3,64.3,29.86,ENE,65,0.0,0.0,84,0.00,,SCT,0.00,WeatherDisplay:10.37,2013-08-13 04:06:00,
2013-08-13 00:10:00,69.3,64.6,29.86,ENE,65,0.0,0.0,85,0.00,,SCT,0.00,WeatherDisplay:10.37,2013-08-13 04:10:00,
2013-08-13 00:11:00,69.3,64.6,29.86,ENE,65,0.0,0.0,85,0.00,,SCT,0.00,WeatherDisplay:10.37,2013-08-13 04:11:00,
2013-08-13 00:13:00,69.3,64.6,29.86,ENE,65,0.0,0.0,85,0.00,,SCT,0.00,WeatherDisplay:10.37,2013-08-13 04:13:00,
2013-08-13 00:14:00,69.3,64.6,29.86,ENE,65,0.0,0.0,85,0.00,,SCT,0.00,WeatherDisplay:10.37,2013-08-13 04:14:00,
2013-08-13 00:15:00,69.3,64.6,29.86,ENE,65,0.0,0.0,85,0.00,,SCT,0.00,WeatherDisplay:10.37,2013-08-13 04:15:00,
2013-08-13 00:18:00,69.3,64.6,29.86,ENE,65,0.0,0.0,85,0.00,,SCT,0.00,WeatherDisplay:10.37,2013-08-13 04:18:00,
2013-08-13 00:19:00,69.3,64.6,29.86,ENE,65,0.0,0.0,85,0.00,,SCT,0.00,WeatherDisplay:10.37,2013-08-13 04:19:00,
2013-08-13 00:21:00,69.3,64.6,29.86,ENE,65,0.0,0.0,85,0.00,,SCT,0.00,WeatherDisplay:10.37,2013-08-13 04:21:00,
2013-08-13 00:23:00,69.3,64.6,29.86,ENE,65,0.0,0.0,85,0.00,,SCT,0.00,WeatherDisplay:10.37,2013-08-13 04:23:00,
2013-08-13 00:24:00,69.3,64.6,29.86,ENE,65,0.0,0.0,85,0.00,,SCT,0.00,WeatherDisplay:10.37,2013-08-13 04:24:00,
2013-08-13 00:25:00,69.3,64.6,29.86,ENE,65,0.0,0.0,85,0.00,,SCT,0.00,WeatherDisplay:10.37,2013-08-13 04:25:00,
2013-08-13 00:26:00,69.3,64.6,29.86,ENE,65,0.0,0.0,85,0.00,,SCT,0.00,WeatherDisplay:10.37,2013-08-13 04:26:00,
2013-08-13 00:29:00,69.3,64.6,29.85,ENE,65,0.0,0.0,85,0.00,,SCT,0.00,WeatherDisplay:10.37,2013-08-13 04:29:00,
2013-08-13 00:31:00,69.3,64.6,29.85,ENE,65,0.0,0.0,85,0.00,,SCT,0.00,WeatherDisplay:10.37,2013-08-13 04:31:00,
2013-08-13 00:32:00,69.1,64.4,29.85,ENE,65,0.0,0.0,85,0.00,,SCT,0.00,WeatherDisplay:10.37,2013-08-13 04:32:00,
2013-08-13 00:34:00,69.1,64.4,29.85,ENE,65,0.0,0.0,85,0.00,,SCT,0.00,WeatherDisplay:10.37,2013-08-13 04:34:00,
2013-08-13 00:35:00,69.1,64.4,29.85,ENE,65,0.0,0.0,85,0.00,,SCT,0.00,WeatherDisplay:10.37,2013-08-13 04:35:00,
2013-08-13 00:37:00,69.1,64.4,29.84,ENE,65,0.0,0.0,85,0.00,,SCT,0.00,WeatherDisplay:10.37,2013-08-13 04:37:00,
2013-08-13 00:41:00,69.1,64.4,29.85,ENE,65,0.0,0.0,85,0.00,,SCT,0.00,WeatherDisplay:10.37,2013-08-13 04:41:00,
2013-08-13 00:42:00,69.3,64.6,29.85,ENE,65,0.0,0.0,85,0.00,,SCT,0.00,WeatherDisplay:10.37,2013-08-13 04:42:00,
2013-08-13 00:44:00,69.3,64.6,29.85,ENE,65,0.0,0.0,85,0.00,,SCT,0.00,WeatherDisplay:10.37,2013-08-13 04:44:00,
2013-08-13 00:47:00,69.3,64.9,29.85,ENE,65,0.0,0.0,86,0.00,,SCT,0.00,WeatherDisplay:10.37,2013-08-13 04:47:00,
2013-08-13 00:49:00,69.4,65.0,29.85,ENE,65,0.0,0.0,86,0.00,,SCT,0.00,WeatherDisplay:10.37,2013-08-13 04:49:00,
2013-08-13 00:51:00,69.4,65.0,29.85,ENE,65,0.0,0.0,86,0.00,,SCT,0.00,WeatherDisplay:10.37,2013-08-13 04:51:00,
2013-08-13 00:53:00,69.4,65.0,29.85,ENE,65,0.0,0.0,86,0.00,,SCT,0.00,WeatherDisplay:10.37,2013-08-13 04:53:00,
2013-08-13 00:55:00,69.4,64.7,29.85,ENE,65,0.0,0.0,85,0.00,,SCT,0.00,WeatherDisplay:10.37,2013-08-13 04:55:00,
2013-08-13 00:56:00,69.3,64.6,29.85,ENE,65,0.0,0.0,85,0.00,,SCT,0.00,WeatherDisplay:10.37,2013-08-13 04:56:00,
2013-08-13 01:00:00,69.3,64.9,29.84,ENE,65,0.0,0.0,86,0.00,,SCT,0.00,WeatherDisplay:10.37,2013-08-13 05:00:00,
2013-08-13 01:01:00,69.3,64.9,29.84,ENE,65,0.0,0.0,86,0.00,,SCT,0.00,WeatherDisplay:10.37,2013-08-13 05:01:00,
2013-08-13 01:02:00,69.3,64.9,29.84,ENE,65,0.0,0.0,86,0.00,,SCT,0.00,WeatherDisplay:10.37,2013-08-13 05:02:00,
2013-08-13 01:06:00,69.3,64.9,29.84,ENE,65,0.0,0.0,86,0.00,,SCT,0.00,WeatherDisplay:10.37,2013-08-13 05:06:00,
2013-08-13 01:07:00,69.3,64.9,29.84,ENE,65,0.0,0.0,86,0.00,,SCT,0.00,WeatherDisplay:10.37,2013-08-13 05:07:00,
2013-08-13 01:08:00,69.3,64.9,29.84,ENE,65,0.0,0.0,86,0.00,,SCT,0.00,WeatherDisplay:10.37,2013-08-13 05:08:00,
2013-08-13 01:09:00,69.3,64.9,29.84,ENE,65,0.0,0.0,86,0.00,,SCT,0.00,WeatherDisplay:10.37,2013-08-13 05:09:00,
2013-08-13 01:11:00,69.3,64.9,29.84,ENE,65,0.0,0.0,86,0.00,,SCT,0.00,WeatherDisplay:10.37,2013-08-13 05:11:00,
2013-08-13 01:13:00,69.3,64.9,29.84,ENE,65,0.0,0.0,86,0.00,,SCT,0.00,WeatherDisplay:10.37,2013-08-13 05:13:00,
2013-08-13 01:14:00,69.3,64.9,29.84,ENE,65,0.0,0.0,86,0.00,,SCT,0.00,WeatherDisplay:10.37,2013-08-13 05:14:00,
2013-08-13 01:15:00,69.3,64.9,29.83,ENE,65,0.0,0.0,86,0.00,,SCT,0.00,WeatherDisplay:10.37,2013-08-13 05:15:00,
2013-08-13 01:19:00,69.3,64.9,29.83,ENE,65,0.0,0.0,86,0.00,,SCT,0.00,WeatherDisplay:10.37,2013-08-13 05:19:00,
2013-08-13 01:20:00,69.1,64.7,29.83,ENE,65,0.0,0.0,86,0.00,,SCT,0.00,WeatherDisplay:10.37,2013-08-13 05:20:00,
2013-08-13 01:22:00,69.1,64.7,29.83,ENE,65,0.0,0.0,86,0.00,,SCT,0.00,WeatherDisplay:10.37,2013-08-13 05:22:00,
2013-08-13 01:25:00,69.1,64.7,29.83,ENE,65,0.0,0.0,86,0.00,,SCT,0.00,WeatherDisplay:10.37,2013-08-13 05:25:00,
2013-08-13 01:27:00,69.1,64.7,29.83,ENE,65,0.0,0.0,86,0.00,,SCT,0.00,WeatherDisplay:10.37,2013-08-13 05:27:00,
2013-08-13 01:28:00,69.1,64.7,29.83,ENE,65,0.0,0.0,86,0.00,,SCT,0.00,WeatherDisplay:10.37,2013-08-13 05:28:00,
2013-08-13 01:32:00,68.9,64.5,29.83,ENE,65,0.0,0.0,86,0.00,,SCT,0.00,WeatherDisplay:10.37,2013-08-13 05:32:00,
2013-08-13 01:33:00,68.9,64.5,29.83,ENE,65,0.0,0.0,86,0.00,,SCT,0.00,WeatherDisplay:10.37,2013-08-13 05:33:00,
2013-08-13 01:34:00,68.9,64.5,29.83,ENE,65,0.0,0.0,86,0.00,,SCT,0.00,WeatherDisplay:10.37,2013-08-13 05:34:00,
2013-08-13 01:35:00,68.9,64.5,29.83,ENE,65,0.0,0.0,86,0.00,,SCT,0.00,WeatherDisplay:10.37,2013-08-13 05:35:00,
2013-08-13 01:37:00,68.9,64.5,29.83,ENE,65,0.0,0.0,86,0.00,,SCT,0.00,WeatherDisplay:10.37,2013-08-13 05:37:00,
2013-08-13 01:38:00,68.9,64.5,29.83,ENE,65,0.0,0.0,86,0.00,,SCT,0.00,WeatherDisplay:10.37,2013-08-13 05:38:00,
2013-08-13 01:43:00,68.9,64.5,29.83,ENE,65,0.0,0.0,86,0.00,,SCT,0.00,WeatherDisplay:10.37,2013-08-13 05:43:00,
2013-08-13 01:44:00,68.9,64.5,29.83,ENE,65,0.0,0.0,86,0.00,,SCT,0.00,WeatherDisplay:10.37,2013-08-13 05:44:00,
2013-08-13 01:45:00,68.9,64.5,29.83,ENE,65,0.0,0.0,86,0.00,,SCT,0.00,WeatherDisplay:10.37,2013-08-13 05:45:00,
2013-08-13 01:46:00,68.9,64.5,29.83,ENE,65,0.0,0.0,86,0.00,,SCT,0.00,WeatherDisplay:10.37,2013-08-13 05:46:00,
2013-08-13 01:49:00,68.9,64.5,29.82,ENE,65,0.0,0.0,86,0.00,,SCT,0.00,WeatherDisplay:10.37,2013-08-13 05:49:00,
2013-08-13 01:50:00,68.8,64.4,29.82,ENE,65,0.0,0.0,86,0.00,,SCT,0.00,WeatherDisplay:10.37,2013-08-13 05:50:00,
2013-08-13 01:51:00,68.8,64.4,29.82,ENE,65,0.0,0.0,86,0.00,,SCT,0.00,WeatherDisplay:10.37,2013-08-13 05:51:00,
2013-08-13 01:54:00,68.8,64.4,29.82,ENE,65,0.0,0.0,86,0.00,,SCT,0.00,WeatherDisplay:10.37,2013-08-13 05:54:00,
2013-08-13 01:58:00,68.9,64.5,29.82,ENE,65,0.0,0.0,86,0.00,,SCT,0.00,WeatherDisplay:10.37,2013-08-13 05:58:00,
2013-08-13 01:59:00,68.9,64.5,29.82,ENE,65,0.0,0.0,86,0.00,,SCT,0.00,WeatherDisplay:10.37,2013-08-13 05:59:00,
2013-08-13 02:02:00,68.9,64.5,29.82,ENE,65,0.0,0.0,86,0.00,,SCT,0.00,WeatherDisplay:10.37,2013-08-13 06:02:00,
2013-08-13 02:03:00,68.8,64.4,29.82,ENE,65,0.0,0.0,86,0.00,,SCT,0.00,WeatherDisplay:10.37,2013-08-13 06:03:00,
2013-08-13 02:04:00,68.8,64.4,29.82,ENE,65,0.0,0.0,86,0.00,,SCT,0.00,WeatherDisplay:10.37,2013-08-13 06:04:00,
2013-08-13 02:05:00,68.8,64.4,29.82,ENE,65,0.0,0.0,86,0.00,,SCT,0.00,WeatherDisplay:10.37,2013-08-13 06:05:00,
2013-08-13 02:06:00,68.8,64.4,29.82,ENE,65,0.0,0.0,86,0.00,,SCT,0.00,WeatherDisplay:10.37,2013-08-13 06:06:00,
2013-08-13 02:08:00,68.8,64.4,29.82,ENE,65,0.0,0.0,86,0.00,,SCT,0.00,WeatherDisplay:10.37,2013-08-13 06:08:00,
2013-08-13 02:13:00,68.9,64.5,29.82,ENE,65,0.0,0.0,86,0.00,,SCT,0.00,WeatherDisplay:10.37,2013-08-13 06:13:00,
2013-08-13 02:14:00,68.9,64.5,29.82,ENE,65,0.0,0.0,86,0.00,,SCT,0.00,WeatherDisplay:10.37,2013-08-13 06:14:00,
2013-08-13 02:17:00,68.9,64.9,29.82,ENE,65,0.0,0.0,87,0.00,,SCT,0.00,WeatherDisplay:10.37,2013-08-13 06:17:00,
2013-08-13 02:18:00,68.9,64.9,29.82,ENE,65,0.0,0.0,87,0.00,,SCT,0.00,WeatherDisplay:10.37,2013-08-13 06:18:00,
2013-08-13 02:19:00,69.1,65.1,29.82,ENE,65,0.0,0.0,87,0.00,,SCT,0.00,WeatherDisplay:10.37,2013-08-13 06:19:00,
2013-08-13 02:20:00,69.1,65.1,29.82,ENE,65,0.0,0.0,87,0.00,,SCT,0.00,WeatherDisplay:10.37,2013-08-13 06:20:00,
2013-08-13 02:25:00,69.3,65.3,29.82,ENE,65,0.0,0.0,87,0.00,,SCT,0.00,WeatherDisplay:10.37,2013-08-13 06:25:00,
2013-08-13 02:27:00,69.3,65.3,29.82,ENE,65,0.0,0.0,87,0.00,,SCT,0.00,WeatherDisplay:10.37,2013-08-13 06:27:00,
2013-08-13 02:28:00,69.3,65.3,29.82,ENE,65,0.0,0.0,87,0.00,,SCT,0.00,WeatherDisplay:10.37,2013-08-13 06:28:00,
2013-08-13 02:31:00,69.3,65.3,29.81,ENE,65,0.0,0.0,87,0.00,,SCT,0.00,WeatherDisplay:10.37,2013-08-13 06:31:00,
2013-08-13 02:32:00,69.3,65.3,29.82,ENE,65,0.0,0.0,87,0.00,,SCT,0.00,WeatherDisplay:10.37,2013-08-13 06:32:00,
2013-08-13 02:34:00,69.4,65.4,29.82,ENE,65,0.0,0.0,87,0.00,,SCT,0.00,WeatherDisplay:10.37,2013-08-13 06:34:00,
2013-08-13 02:36:00,69.4,65.4,29.82,ENE,65,0.0,0.0,87,0.00,,SCT,0.00,WeatherDisplay:10.37,2013-08-13 06:36:00,
2013-08-13 02:37:00,69.4,65.4,29.82,ENE,65,0.0,0.0,87,0.00,,SCT,0.00,WeatherDisplay:10.37,2013-08-13 06:37:00,
2013-08-13 02:39:00,69.4,65.4,29.82,ENE,65,0.0,0.0,87,0.00,,SCT,0.00,WeatherDisplay:10.37,2013-08-13 06:39:00,
2013-08-13 02:42:00,69.4,65.4,29.82,ENE,65,0.0,0.0,87,0.00,,SCT,0.00,WeatherDisplay:10.37,2013-08-13 06:42:00,
2013-08-13 02:44:00,69.4,65.4,29.82,ENE,65,0.0,0.0,87,0.00,,SCT,0.00,WeatherDisplay:10.37,2013-08-13 06:44:00,
2013-08-13 02:45:00,69.4,65.4,29.82,ENE,65,0.0,0.0,87,0.00,,SCT,0.00,WeatherDisplay:10.37,2013-08-13 06:45:00,
2013-08-13 02:48:00,69.4,65.4,29.81,ENE,65,0.0,0.0,87,0.00,,SCT,0.00,WeatherDisplay:10.37,2013-08-13 06:48:00,
2013-08-13 02:49:00,69.4,65.4,29.81,ENE,65,0.0,0.0,87,0.00,,SCT,0.00,WeatherDisplay:10.37,2013-08-13 06:49:00,
2013-08-13 02:51:00,69.6,65.6,29.81,ENE,65,0.0,0.0,87,0.00,,SCT,0.00,WeatherDisplay:10.37,2013-08-13 06:51:00,
2013-08-13 02:53:00,69.6,65.6,29.81,ENE,65,0.0,0.0,87,0.00,,SCT,0.00,WeatherDisplay:10.37,2013-08-13 06:53:00,
2013-08-13 02:55:00,69.6,65.6,29.80,ENE,65,0.0,0.0,87,0.00,,SCT,0.00,WeatherDisplay:10.37,2013-08-13 06:55:00,
2013-08-13 02:56:00,69.6,65.6,29.80,ENE,65,0.0,0.0,87,0.00,,SCT,0.00,WeatherDisplay:10.37,2013-08-13 06:56:00,
2013-08-13 02:57:00,69.6,65.6,29.80,ENE,65,0.0,0.0,87,0.00,,SCT,0.00,WeatherDisplay:10.37,2013-08-13 06:57:00,
2013-08-13 02:58:00,69.6,65.6,29.80,ENE,65,0.0,0.0,87,0.00,,SCT,0.00,WeatherDisplay:10.37,2013-08-13 06:58:00,
2013-08-13 03:02:00,69.6,65.6,29.80,ENE,65,0.0,0.0,87,0.00,,SCT,0.00,WeatherDisplay:10.37,2013-08-13 07:02:00,
2013-08-13 03:03:00,69.6,65.6,29.80,ENE,65,0.0,0.0,87,0.00,,SCT,0.00,WeatherDisplay:10.37,2013-08-13 07:03:00,
2013-08-13 03:06:00,69.6,65.6,29.81,ENE,65,0.0,0.0,87,0.00,,SCT,0.00,WeatherDisplay:10.37,2013-08-13 07:06:00,
2013-08-13 03:07:00,69.6,65.6,29.81,ENE,65,0.0,0.0,87,0.00,,SCT,0.00,WeatherDisplay:10.37,2013-08-13 07:07:00,
2013-08-13 03:08:00,69.6,65.6,29.81,ENE,65,0.0,0.0,87,0.00,,SCT,0.00,WeatherDisplay:10.37,2013-08-13 07:08:00,
2013-08-13 03:10:00,69.6,65.6,29.80,ENE,65,0.0,0.0,87,0.00,,SCT,0.00,WeatherDisplay:10.37,2013-08-13 07:10:00,
2013-08-13 03:12:00,69.6,65.6,29.80,ENE,65,0.0,0.0,87,0.00,,SCT,0.00,WeatherDisplay:10.37,2013-08-13 07:12:00,
2013-08-13 03:13:00,69.6,65.6,29.80,ENE,65,0.0,0.0,87,0.00,,SCT,0.00,WeatherDisplay:10.37,2013-08-13 07:13:00,
2013-08-13 03:15:00,69.6,65.6,29.80,ENE,65,0.0,0.0,87,0.00,,SCT,0.00,WeatherDisplay:10.37,2013-08-13 07:15:00,
2013-08-13 03:17:00,69.6,65.6,29.80,ENE,65,0.0,0.0,87,0.00,,SCT,0.00,WeatherDisplay:10.37,2013-08-13 07:17:00,
2013-08-13 03:18:00,69.6,65.6,29.80,ENE,65,0.0,0.0,87,0.00,,SCT,0.00,WeatherDisplay:10.37,2013-08-13 07:18:00,
2013-08-13 03:19:00,69.6,65.6,29.81,ENE,65,0.0,0.0,87,0.00,,SCT,0.00,WeatherDisplay:10.37,2013-08-13 07:19:00,
2013-08-13 03:20:00,69.6,65.6,29.80,ENE,65,0.0,0.0,87,0.00,,SCT,0.00,WeatherDisplay:10.37,2013-08-13 07:20:00,
2013-08-13 03:25:00,69.8,65.8,29.80,ENE,65,0.0,0.0,87,0.00,,SCT,0.00,WeatherDisplay:10.37,2013-08-13 07:25:00,
2013-08-13 03:26:00,69.8,65.8,29.80,ENE,65,0.0,0.0,87,0.00,,SCT,0.00,WeatherDisplay:10.37,2013-08-13 07:26:00,
2013-08-13 03:27:00,69.8,65.8,29.80,ENE,65,0.0,0.0,87,0.00,,SCT,0.00,WeatherDisplay:10.37,2013-08-13 07:27:00,
2013-08-13 03:30:00,69.8,65.8,29.80,ENE,65,0.0,0.0,87,0.00,,SCT,0.00,WeatherDisplay:10.37,2013-08-13 07:30:00,
2013-08-13 03:31:00,69.8,65.8,29.80,ENE,65,0.0,0.0,87,0.00,,SCT,0.00,WeatherDisplay:10.37,2013-08-13 07:31:00,
2013-08-13 03:32:00,69.9,65.9,29.80,ENE,65,0.0,0.0,87,0.00,,SCT,0.00,WeatherDisplay:10.37,2013-08-13 07:32:00,
2013-08-13 03:33:00,69.9,65.9,29.80,ENE,65,0.0,0.0,87,0.00,,SCT,0.00,WeatherDisplay:10.37,2013-08-13 07:33:00,
2013-08-13 03:36:00,69.9,65.9,29.79,ENE,65,0.0,0.0,87,0.00,,SCT,0.00,WeatherDisplay:10.37,2013-08-13 07:36:00,
2013-08-13 03:37:00,69.9,65.9,29.79,ENE,65,0.0,0.0,87,0.00,,SCT,0.00,WeatherDisplay:10.37,2013-08-13 07:37:00,
2013-08-13 03:38:00,69.9,66.2,29.79,ENE,65,0.0,0.0,88,0.00,,SCT,0.00,WeatherDisplay:10.37,2013-08-13 07:38:00,
2013-08-13 03:42:00,70.1,66.4,29.79,East,99,0.0,0.0,88,0.00,,SCT,0.00,WeatherDisplay:10.37,2013-08-13 07:42:00,
2013-08-13 03:43:00,70.1,66.4,29.79,East,99,0.0,0.0,88,0.00,,SCT,0.00,WeatherDisplay:10.37,2013-08-13 07:43:00,
2013-08-13 03:44:00,70.1,66.4,29.79,East,99,0.0,0.0,88,0.00,,SCT,0.00,WeatherDisplay:10.37,2013-08-13 07:44:00,
2013-08-13 03:45:00,70.1,66.4,29.79,East,99,0.0,0.0,88,0.00,,SCT,0.00,WeatherDisplay:10.37,2013-08-13 07:45:00,
2013-08-13 03:46:00,70.1,66.4,29.79,East,99,0.0,0.0,88,0.00,,SCT,0.00,WeatherDisplay:10.37,2013-08-13 07:46:00,
2013-08-13 03:50:00,70.1,66.4,29.79,East,99,0.0,0.0,88,0.00,,SCT,0.00,WeatherDisplay:10.37,2013-08-13 07:50:00,
2013-08-13 03:52:00,70.1,66.4,29.79,East,99,0.0,0.0,88,0.00,,SCT,0.00,WeatherDisplay:10.37,2013-08-13 07:52:00,
2013-08-13 03:53:00,70.1,66.4,29.79,East,99,0.0,0.0,88,0.00,,SCT,0.00,WeatherDisplay:10.37,2013-08-13 07:53:00,
2013-08-13 03:55:00,70.3,66.6,29.79,East,99,0.0,0.0,88,0.00,,SCT,0.00,WeatherDisplay:10.37,2013-08-13 07:55:00,
2013-08-13 03:56:00,70.3,66.6,29.79,East,99,0.0,0.0,88,0.00,,SCT,0.00,WeatherDisplay:10.37,2013-08-13 07:56:00,
2013-08-13 03:59:00,70.3,66.6,29.79,East,99,0.0,0.0,88,0.00,,SCT,0.00,WeatherDisplay:10.37,2013-08-13 07:59:00,
2013-08-13 04:01:00,70.3,66.6,29.79,East,99,0.0,0.0,88,0.00,,SCT,0.00,WeatherDisplay:10.37,2013-08-13 08:01:00,
2013-08-13 04:04:00,70.3,66.6,29.79,East,99,0.0,0.0,88,0.00,,SCT,0.00,WeatherDisplay:10.37,2013-08-13 08:04:00,
2013-08-13 04:05:00,70.3,66.6,29.79,East,99,0.0,0.0,88,0.00,,SCT,0.00,WeatherDisplay:10.37,2013-08-13 08:05:00,
2013-08-13 04:07:00,70.3,66.6,29.78,East,99,0.0,0.0,88,0.00,,SCT,0.00,WeatherDisplay:10.37,2013-08-13 08:07:00,
2013-08-13 04:10:00,70.3,66.6,29.78,East,99,0.0,0.0,88,0.00,,SCT,0.00,WeatherDisplay:10.37,2013-08-13 08:10:00,
2013-08-13 04:11:00,70.3,66.6,29.78,East,99,0.0,0.0,88,0.00,,SCT,0.00,WeatherDisplay:10.37,2013-08-13 08:11:00,
2013-08-13 04:13:00,70.1,66.4,29.78,East,99,0.0,0.0,88,0.00,,SCT,0.00,WeatherDisplay:10.37,2013-08-13 08:13:00,
2013-08-13 04:15:00,70.1,66.4,29.78,East,99,0.0,0.0,88,0.00,,SCT,0.00,WeatherDisplay:10.37,2013-08-13 08:15:00,
2013-08-13 04:16:00,70.1,66.4,29.78,East,99,0.0,0.0,88,0.00,,SCT,0.00,WeatherDisplay:10.37,2013-08-13 08:16:00,
2013-08-13 04:17:00,70.1,66.4,29.78,East,99,0.0,0.0,88,0.00,,SCT,0.00,WeatherDisplay:10.37,2013-08-13 08:17:00,
2013-08-13 04:19:00,70.1,66.4,29.78,East,99,0.0,0.0,88,0.00,,SCT,0.00,WeatherDisplay:10.37,2013-08-13 08:19:00,
2013-08-13 04:22:00,70.1,66.4,29.78,East,99,0.0,0.0,88,0.00,,SCT,0.00,WeatherDisplay:10.37,2013-08-13 08:22:00,
2013-08-13 04:23:00,70.1,66.4,29.78,East,99,0.0,0.0,88,0.00,,SCT,0.00,WeatherDisplay:10.37,2013-08-13 08:23:00,
2013-08-13 04:24:00,70.1,66.4,29.78,East,99,0.0,0.0,88,0.00,,SCT,0.00,WeatherDisplay:10.37,2013-08-13 08:24:00,
2013-08-13 04:25:00,70.1,66.4,29.78,East,99,0.0,0.0,88,0.00,,SCT,0.00,WeatherDisplay:10.37,2013-08-13 08:25:00,
2013-08-13 04:27:00,70.1,66.4,29.78,East,99,0.0,0.0,88,0.00,,SCT,0.00,WeatherDisplay:10.37,2013-08-13 08:27:00,
2013-08-13 04:29:00,70.1,66.4,29.78,East,99,0.0,0.0,88,0.00,,SCT,0.00,WeatherDisplay:10.37,2013-08-13 08:29:00,
2013-08-13 04:32:00,70.1,66.4,29.77,East,99,0.0,0.0,88,0.00,,SCT,0.00,WeatherDisplay:10.37,2013-08-13 08:32:00,
2013-08-13 04:34:00,70.1,66.4,29.77,East,99,0.0,0.0,88,0.00,,SCT,0.00,WeatherDisplay:10.37,2013-08-13 08:34:00,
2013-08-13 04:37:00,70.1,66.4,29.77,East,99,0.0,0.0,88,0.00,,SCT,0.00,WeatherDisplay:10.37,2013-08-13 08:37:00,
2013-08-13 04:39:00,70.1,66.4,29.77,East,99,0.0,0.0,88,0.00,,SCT,0.00,WeatherDisplay:10.37,2013-08-13 08:39:00,
2013-08-13 04:40:00,70.1,66.4,29.78,East,99,0.0,0.0,88,0.00,,SCT,0.00,WeatherDisplay:10.37,2013-08-13 08:40:00,
2013-08-13 04:41:00,70.1,66.4,29.78,East,99,0.0,0.0,88,0.00,,SCT,0.00,WeatherDisplay:10.37,2013-08-13 08:41:00,
2013-08-13 04:42:00,70.1,66.4,29.78,East,99,0.0,0.0,88,0.00,,SCT,0.00,WeatherDisplay:10.37,2013-08-13 08:42:00,
2013-08-13 04:45:00,70.1,66.4,29.78,East,99,0.0,0.0,88,0.00,,SCT,0.00,WeatherDisplay:10.37,2013-08-13 08:45:00,
2013-08-13 04:46:00,70.1,66.4,29.78,East,99,0.0,0.0,88,0.00,,SCT,0.00,WeatherDisplay:10.37,2013-08-13 08:46:00,
2013-08-13 04:47:00,70.1,66.4,29.78,East,99,0.0,0.0,88,0.00,,SCT,0.00,WeatherDisplay:10.37,2013-08-13 08:47:00,
2013-08-13 04:50:00,70.1,66.4,29.77,East,99,0.0,0.0,88,0.00,,SCT,0.00,WeatherDisplay:10.37,2013-08-13 08:50:00,
2013-08-13 04:52:00,70.1,66.4,29.77,East,99,0.0,0.0,88,0.00,,SCT,0.00,WeatherDisplay:10.37,2013-08-13 08:52:00,
2013-08-13 04:55:00,70.1,66.4,29.77,East,99,0.0,0.0,88,0.00,,SCT,0.00,WeatherDisplay:10.37,2013-08-13 08:55:00,
2013-08-13 04:57:00,70.1,66.4,29.77,East,99,0.0,0.0,88,0.00,,SCT,0.00,WeatherDisplay:10.37,2013-08-13 08:57:00,
2013-08-13 04:58:00,70.1,66.4,29.77,East,99,0.0,0.0,88,0.00,,SCT,0.00,WeatherDisplay:10.37,2013-08-13 08:58:00,
2013-08-13 04:59:00,70.1,66.4,29.77,East,99,0.0,0.0,88,0.00,,SCT,0.00,WeatherDisplay:10.37,2013-08-13 08:59:00,
2013-08-13 05:00:00,70.1,66.4,29.77,East,99,0.0,0.0,88,0.00,,SCT,0.00,WeatherDisplay:10.37,2013-08-13 09:00:00,
2013-08-13 05:02:00,70.1,66.4,29.77,East,99,0.0,0.0,88,0.00,,SCT,0.00,WeatherDisplay:10.37,2013-08-13 09:02:00,
2013-08-13 05:03:00,70.1,66.4,29.77,East,99,0.0,0.0,88,0.00,,SCT,0.00,WeatherDisplay:10.37,2013-08-13 09:03:00,
2013-08-13 05:05:00,70.1,66.4,29.78,East,99,0.0,0.0,88,0.00,,SCT,0.00,WeatherDisplay:10.37,2013-08-13 09:05:00,
2013-08-13 05:07:00,70.1,66.4,29.78,East,99,0.0,0.0,88,0.00,,SCT,0.00,WeatherDisplay:10.37,2013-08-13 09:07:00,
2013-08-13 05:09:00,70.1,66.4,29.78,East,99,0.0,0.0,88,0.00,,SCT,0.00,WeatherDisplay:10.37,2013-08-13 09:09:00,
2013-08-13 05:10:00,70.1,66.4,29.78,East,99,0.0,0.0,88,0.00,,SCT,0.00,WeatherDisplay:10.37,2013-08-13 09:10:00,
2013-08-13 05:11:00,70.1,66.4,29.78,East,99,0.0,0.0,88,0.00,,SCT,0.00,WeatherDisplay:10.37,2013-08-13 09:11:00,
2013-08-13 05:14:00,70.1,66.4,29.78,East,99,0.0,0.0,88,0.00,,SCT,0.00,WeatherDisplay:10.37,2013-08-13 09:14:00,
2013-08-13 05:16:00,70.1,66.4,29.78,East,99,0.0,0.0,88,0.00,,SCT,0.00,WeatherDisplay:10.37,2013-08-13 09:16:00,
2013-08-13 05:19:00,70.1,66.4,29.78,East,99,0.0,0.0,88,0.00,,SCT,0.00,WeatherDisplay:10.37,2013-08-13 09:19:00,
2013-08-13 05:24:00,70.1,66.4,29.78,East,99,0.0,0.0,88,0.00,,SCT,0.00,WeatherDisplay:10.37,2013-08-13 09:24:00,
2013-08-13 05:25:00,70.1,66.4,29.78,East,99,0.0,0.0,88,0.00,,SCT,0.00,WeatherDisplay:10.37,2013-08-13 09:25:00,
2013-08-13 05:26:00,70.1,66.4,29.78,East,99,0.0,0.0,88,0.00,,SCT,0.00,WeatherDisplay:10.37,2013-08-13 09:26:00,
2013-08-13 05:28:00,70.1,66.4,29.78,East,99,0.0,0.0,88,0.00,,SCT,0.00,WeatherDisplay:10.37,2013-08-13 09:28:00,
2013-08-13 05:29:00,70.1,66.4,29.78,East,99,0.0,0.0,88,0.00,,SCT,0.00,WeatherDisplay:10.37,2013-08-13 09:29:00,
2013-08-13 05:30:00,70.1,66.4,29.78,East,99,0.0,0.0,88,0.00,,SCT,0.00,WeatherDisplay:10.37,2013-08-13 09:30:00,
2013-08-13 05:34:00,70.1,66.4,29.78,East,99,0.0,0.0,88,0.00,,SCT,0.00,WeatherDisplay:10.37,2013-08-13 09:34:00,
2013-08-13 05:35:00,70.1,66.4,29.78,East,99,0.0,0.0,88,0.00,,SCT,0.00,WeatherDisplay:10.37,2013-08-13 09:35:00,
2013-08-13 05:36:00,70.3,66.6,29.78,East,99,0.0,0.0,88,0.00,,SCT,0.00,WeatherDisplay:10.37,2013-08-13 09:36:00,
2013-08-13 05:40:00,70.3,66.6,29.78,East,99,0.0,0.0,88,0.00,,SCT,0.00,WeatherDisplay:10.37,2013-08-13 09:40:00,
2013-08-13 05:41:00,70.3,66.6,29.78,East,99,0.0,0.0,88,0.00,,SCT,0.00,WeatherDisplay:10.37,2013-08-13 09:41:00,
2013-08-13 05:42:00,70.3,66.6,29.78,East,99,0.0,0.0,88,0.00,,SCT,0.00,WeatherDisplay:10.37,2013-08-13 09:42:00,
2013-08-13 05:43:00,70.3,66.6,29.78,East,99,0.0,0.0,88,0.00,,SCT,0.00,WeatherDisplay:10.37,2013-08-13 09:43:00,
2013-08-13 05:47:00,70.3,66.6,29.78,East,99,0.0,0.0,88,0.00,,SCT,0.00,WeatherDisplay:10.37,2013-08-13 09:47:00,
2013-08-13 05:48:00,70.3,66.6,29.78,East,99,0.0,0.0,88,0.00,,SCT,0.00,WeatherDisplay:10.37,2013-08-13 09:48:00,
2013-08-13 05:49:00,70.3,66.6,29.78,East,99,0.0,0.0,88,0.00,,SCT,0.00,WeatherDisplay:10.37,2013-08-13 09:49:00,
2013-08-13 05:50:00,70.3,66.6,29.78,East,99,0.0,0.0,88,0.00,,SCT,0.00,WeatherDisplay:10.37,2013-08-13 09:50:00,
2013-08-13 05:54:00,70.3,66.6,29.78,East,99,0.0,0.0,88,0.00,,SCT,0.00,WeatherDisplay:10.37,2013-08-13 09:54:00,
2013-08-13 05:55:00,70.3,66.6,29.78,East,99,0.0,0.0,88,0.00,,SCT,0.00,WeatherDisplay:10.37,2013-08-13 09:55:00,
2013-08-13 05:56:00,70.3,66.6,29.78,East,99,0.0,0.0,88,0.00,,SCT,0.00,WeatherDisplay:10.37,2013-08-13 09:56:00,
2013-08-13 05:57:00,70.3,66.6,29.78,East,99,0.0,0.0,88,0.00,,SCT,0.00,WeatherDisplay:10.37,2013-08-13 09:57:00,
2013-08-13 05:58:00,70.3,66.6,29.78,East,99,0.0,0.0,88,0.00,,SCT,0.00,WeatherDisplay:10.37,2013-08-13 09:58:00,
2013-08-13 06:00:00,70.3,66.6,29.78,East,99,0.0,0.0,88,0.00,,SCT,0.00,WeatherDisplay:10.37,2013-08-13 10:00:00,
2013-08-13 06:02:00,70.3,66.6,29.78,East,99,0.0,0.0,88,0.00,,SCT,0.00,WeatherDisplay:10.37,2013-08-13 10:02:00,
2013-08-13 06:03:00,70.3,66.6,29.78,East,99,0.0,0.0,88,0.00,,SCT,0.00,WeatherDisplay:10.37,2013-08-13 10:03:00,
2013-08-13 06:05:00,70.3,66.6,29.78,East,99,0.0,0.0,88,0.00,,SCT,0.00,WeatherDisplay:10.37,2013-08-13 10:05:00,
2013-08-13 06:08:00,70.3,66.6,29.78,East,99,0.0,0.0,88,0.00,,SCT,0.00,WeatherDisplay:10.37,2013-08-13 10:08:00,
2013-08-13 06:09:00,70.3,66.6,29.78,East,99,0.0,0.0,88,0.00,,SCT,0.00,WeatherDisplay:10.37,2013-08-13 10:09:00,
2013-08-13 06:10:00,70.3,66.6,29.78,East,99,0.0,0.0,88,0.00,,SCT,0.00,WeatherDisplay:10.37,2013-08-13 10:10:00,
2013-08-13 06:11:00,70.3,66.6,29.78,East,99,0.0,0.0,88,0.00,,SCT,0.00,WeatherDisplay:10.37,2013-08-13 10:11:00,
2013-08-13 06:13:00,70.3,66.6,29.78,East,99,0.0,0.0,88,0.00,,SCT,0.00,WeatherDisplay:10.37,2013-08-13 10:13:00,
2013-08-13 06:15:00,70.3,66.6,29.78,East,99,0.0,0.0,88,0.00,,SCT,0.00,WeatherDisplay:10.37,2013-08-13 10:15:00,
2013-08-13 06:16:00,70.3,66.6,29.78,East,99,0.0,0.0,88,0.00,,SCT,0.00,WeatherDisplay:10.37,2013-08-13 10:16:00,
2013-08-13 06:17:00,70.3,66.6,29.79,East,99,0.0,0.0,88,0.00,,SCT,0.00,WeatherDisplay:10.37,2013-08-13 10:17:00,
2013-08-13 06:21:00,70.3,66.6,29.79,East,99,0.0,0.0,88,0.00,,SCT,0.00,WeatherDisplay:10.37,2013-08-13 10:21:00,
2013-08-13 06:22:00,70.3,66.6,29.79,East,99,0.0,0.0,88,0.00,,SCT,0.00,WeatherDisplay:10.37,2013-08-13 10:22:00,
2013-08-13 06:23:00,70.3,66.6,29.79,East,99,0.0,0.0,88,0.00,,SCT,0.00,WeatherDisplay:10.37,2013-08-13 10:23:00,
2013-08-13 06:24:00,70.3,66.6,29.79,East,99,0.0,0.0,88,0.00,,SCT,0.00,WeatherDisplay:10.37,2013-08-13 10:24:00,
2013-08-13 06:25:00,70.3,66.6,29.79,East,99,0.0,0.0,88,0.00,,SCT,0.00,WeatherDisplay:10.37,2013-08-13 10:25:00,
2013-08-13 06:28:00,70.3,66.6,29.79,East,99,0.0,0.0,88,0.00,,SCT,0.00,WeatherDisplay:10.37,2013-08-13 10:28:00,
2013-08-13 06:29:00,70.3,66.6,29.79,East,99,0.0,0.0,88,0.00,,SCT,0.00,WeatherDisplay:10.37,2013-08-13 10:29:00,
2013-08-13 06:32:00,70.3,66.6,29.79,East,99,0.0,0.0,88,0.00,,SCT,0.00,WeatherDisplay:10.37,2013-08-13 10:32:00,
2013-08-13 06:33:00,70.3,66.6,29.79,East,99,0.0,0.0,88,0.00,,SCT,0.00,WeatherDisplay:10.37,2013-08-13 10:33:00,
2013-08-13 06:35:00,70.3,66.6,29.79,East,99,0.0,0.0,88,0.00,,SCT,0.00,WeatherDisplay:10.37,2013-08-13 10:35:00,
2013-08-13 06:37:00,70.3,66.6,29.79,East,99,0.0,0.0,88,0.00,,SCT,0.00,WeatherDisplay:10.37,2013-08-13 10:37:00,
2013-08-13 06:38:00,70.3,66.6,29.79,East,99,0.0,0.0,88,0.00,,SCT,0.00,WeatherDisplay:10.37,2013-08-13 10:38:00,
2013-08-13 06:41:00,70.3,66.6,29.79,East,99,0.0,0.0,88,0.00,,SCT,0.00,WeatherDisplay:10.37,2013-08-13 10:41:00,
2013-08-13 06:43:00,70.3,66.6,29.79,East,99,0.0,0.0,88,0.00,,SCT,0.00,WeatherDisplay:10.37,2013-08-13 10:43:00,
2013-08-13 06:44:00,70.4,66.7,29.79,East,99,0.0,0.0,88,0.00,,SCT,0.00,WeatherDisplay:10.37,2013-08-13 10:44:00,
2013-08-13 06:46:00,70.4,67.0,29.79,East,99,0.0,0.0,89,0.00,,SCT,0.00,WeatherDisplay:10.37,2013-08-13 10:46:00,
2013-08-13 06:49:00,70.4,66.7,29.79,East,99,0.0,0.0,88,0.00,,SCT,0.00,WeatherDisplay:10.37,2013-08-13 10:49:00,
2013-08-13 06:50:00,70.6,66.9,29.79,East,99,0.0,0.0,88,0.00,,SCT,0.00,WeatherDisplay:10.37,2013-08-13 10:50:00,
2013-08-13 06:51:00,70.6,66.9,29.79,East,99,0.0,0.0,88,0.00,,SCT,0.00,WeatherDisplay:10.37,2013-08-13 10:51:00,
2013-08-13 06:55:00,70.6,67.2,29.79,East,99,0.0,0.0,89,0.00,,SCT,0.00,WeatherDisplay:10.37,2013-08-13 10:55:00,
2013-08-13 06:56:00,70.8,67.4,29.79,East,99,0.0,0.0,89,0.00,,SCT,0.00,WeatherDisplay:10.37,2013-08-13 10:56:00,
2013-08-13 06:57:00,70.8,67.4,29.79,East,99,0.0,0.1,89,0.00,,SCT,0.00,WeatherDisplay:10.37,2013-08-13 10:57:00,
2013-08-13 07:01:00,70.9,67.5,29.79,East,99,0.0,0.0,89,0.00,,SCT,0.00,WeatherDisplay:10.37,2013-08-13 11:01:00,
2013-08-13 07:02:00,70.9,67.5,29.79,East,99,0.0,0.0,89,0.00,,SCT,0.00,WeatherDisplay:10.37,2013-08-13 11:02:00,
2013-08-13 07:03:00,70.9,67.5,29.79,East,99,0.0,0.0,89,0.00,,SCT,0.00,WeatherDisplay:10.37,2013-08-13 11:03:00,
2013-08-13 07:04:00,70.9,67.5,29.79,East,99,0.0,0.0,89,0.00,,SCT,0.00,WeatherDisplay:10.37,2013-08-13 11:04:00,
2013-08-13 07:06:00,71.1,67.7,29.80,East,99,0.0,0.0,89,0.00,,SCT,0.00,WeatherDisplay:10.37,2013-08-13 11:06:00,
2013-08-13 07:08:00,71.1,67.7,29.80,East,99,0.0,0.0,89,0.00,,SCT,0.00,WeatherDisplay:10.37,2013-08-13 11:08:00,
2013-08-13 07:12:00,71.3,67.9,29.80,East,99,0.0,0.0,89,0.00,,SCT,0.00,WeatherDisplay:10.37,2013-08-13 11:12:00,
2013-08-13 07:13:00,71.3,67.9,29.80,East,99,0.0,0.0,89,0.00,,SCT,0.00,WeatherDisplay:10.37,2013-08-13 11:13:00,
2013-08-13 07:17:00,71.3,67.9,29.80,SE,130,0.0,0.0,89,0.00,,SCT,0.00,WeatherDisplay:10.37,2013-08-13 11:17:00,
2013-08-13 07:19:00,71.5,68.1,29.80,SE,130,0.0,0.0,89,0.00,,SCT,0.00,WeatherDisplay:10.37,2013-08-13 11:19:00,
2013-08-13 07:21:00,71.5,68.1,29.79,SE,130,0.0,0.0,89,0.00,,SCT,0.00,WeatherDisplay:10.37,2013-08-13 11:21:00,
2013-08-13 07:22:00,71.5,68.1,29.79,SE,130,0.0,0.0,89,0.00,,SCT,0.00,WeatherDisplay:10.37,2013-08-13 11:22:00,
2013-08-13 07:23:00,71.5,68.1,29.79,SE,130,0.0,0.0,89,0.00,,SCT,0.00,WeatherDisplay:10.37,2013-08-13 11:23:00,
2013-08-13 07:24:00,71.5,68.1,29.79,SE,130,0.0,0.0,89,0.00,,SCT,0.00,WeatherDisplay:10.37,2013-08-13 11:24:00,
2013-08-13 07:26:00,71.5,68.1,29.79,SE,130,0.0,0.0,89,0.00,,SCT,0.00,WeatherDisplay:10.37,2013-08-13 11:26:00,
2013-08-13 07:28:00,71.6,68.2,29.79,SE,130,0.0,0.0,89,0.00,,SCT,0.00,WeatherDisplay:10.37,2013-08-13 11:28:00,
2013-08-13 07:29:00,71.6,68.2,29.79,SE,130,0.0,0.0,89,0.00,,SCT,0.00,WeatherDisplay:10.37,2013-08-13 11:29:00,
2013-08-13 07:31:00,71.6,68.2,29.78,SE,130,0.0,0.0,89,0.00,,SCT,0.00,WeatherDisplay:10.37,2013-08-13 11:31:00,
2013-08-13 07:33:00,71.6,68.2,29.79,SE,130,0.0,0.0,89,0.00,,SCT,0.00,WeatherDisplay:10.37,2013-08-13 11:33:00,
2013-08-13 07:34:00,71.6,68.2,29.79,SE,130,0.0,0.0,89,0.00,,SCT,0.00,WeatherDisplay:10.37,2013-08-13 11:34:00,
2013-08-13 07:36:00,71.6,68.2,29.79,SE,130,0.0,0.0,89,0.00,,SCT,0.00,WeatherDisplay:10.37,2013-08-13 11:36:00,
2013-08-13 07:38:00,71.6,68.2,29.79,SE,130,0.0,0.0,89,0.00,,SCT,0.00,WeatherDisplay:10.37,2013-08-13 11:38:00,
2013-08-13 07:41:00,71.8,68.4,29.79,SE,130,0.0,0.0,89,0.00,,SCT,0.00,WeatherDisplay:10.37,2013-08-13 11:41:00,
2013-08-13 07:43:00,71.8,68.4,29.79,SE,130,0.0,0.0,89,0.00,,SCT,0.00,WeatherDisplay:10.37,2013-08-13 11:43:00,
2013-08-13 07:45:00,71.8,68.4,29.79,SE,130,0.0,0.0,89,0.00,,SCT,0.00,WeatherDisplay:10.37,2013-08-13 11:45:00,
2013-08-13 07:48:00,71.8,68.4,29.79,SE,130,0.0,0.0,89,0.00,,SCT,0.00,WeatherDisplay:10.37,2013-08-13 11:48:00,
2013-08-13 07:51:00,72.0,68.6,29.79,SE,130,0.0,0.0,89,0.00,,SCT,0.00,WeatherDisplay:10.37,2013-08-13 11:51:00,
2013-08-13 07:52:00,72.0,68.6,29.79,SE,128,0.0,0.0,89,0.00,,SCT,0.00,WeatherDisplay:10.37,2013-08-13 11:52:00,
2013-08-13 07:54:00,72.0,68.6,29.79,SE,136,0.0,0.0,89,0.00,,SCT,0.00,WeatherDisplay:10.37,2013-08-13 11:54:00,
2013-08-13 07:56:00,72.0,68.6,29.79,SE,136,0.0,0.0,89,0.00,,SCT,0.00,WeatherDisplay:10.37,2013-08-13 11:56:00,
2013-08-13 07:57:00,72.0,68.6,29.79,SE,136,0.0,0.0,89,0.00,,SCT,0.00,WeatherDisplay:10.37,2013-08-13 11:57:00,
2013-08-13 07:59:00,72.0,68.6,29.79,SE,136,0.0,0.0,89,0.00,,SCT,0.00,WeatherDisplay:10.37,2013-08-13 11:59:00,
2013-08-13 08:01:00,72.0,68.6,29.79,SE,136,0.0,0.0,89,0.00,,SCT,0.00,WeatherDisplay:10.37,2013-08-13 12:01:00,
2013-08-13 08:02:00,72.0,68.6,29.79,SE,136,0.0,0.0,89,0.00,,SCT,0.00,WeatherDisplay:10.37,2013-08-13 12:02:00,
2013-08-13 08:04:00,72.1,68.7,29.79,SE,136,0.0,0.0,89,0.00,,SCT,0.00,WeatherDisplay:10.37,2013-08-13 12:04:00,
2013-08-13 08:06:00,72.1,68.7,29.80,SE,136,0.0,0.0,89,0.00,,SCT,0.00,WeatherDisplay:10.37,2013-08-13 12:06:00,
2013-08-13 08:08:00,72.1,68.7,29.80,SE,136,0.0,0.0,89,0.00,,SCT,0.00,WeatherDisplay:10.37,2013-08-13 12:08:00,
2013-08-13 08:09:00,72.1,68.7,29.80,SE,136,0.0,0.0,89,0.00,,SCT,0.00,WeatherDisplay:10.37,2013-08-13 12:09:00,
2013-08-13 08:12:00,72.3,68.9,29.80,SSE,165,0.0,0.0,89,0.00,,SCT,0.00,WeatherDisplay:10.37,2013-08-13 12:12:00,
2013-08-13 08:13:00,72.3,68.9,29.80,South,172,0.0,0.0,89,0.00,,SCT,0.00,WeatherDisplay:10.37,2013-08-13 12:13:00,
2013-08-13 08:14:00,72.3,68.9,29.80,SSW,194,3.5,3.5,89,0.00,,SCT,0.00,WeatherDisplay:10.37,2013-08-13 12:14:00,
2013-08-13 08:18:00,72.3,68.9,29.81,WSW,257,10.4,10.4,89,0.00,,SCT,0.00,WeatherDisplay:10.37,2013-08-13 12:18:00,
2013-08-13 08:19:00,72.5,69.1,29.81,WSW,246,6.9,6.9,89,0.00,,SCT,0.00,WeatherDisplay:10.37,2013-08-13 12:19:00,
2013-08-13 08:20:00,72.5,69.1,29.81,WSW,238,6.9,6.9,89,0.00,,SCT,0.00,WeatherDisplay:10.37,2013-08-13 12:20:00,
2013-08-13 08:23:00,72.5,69.1,29.81,WSW,246,5.0,5.0,89,0.00,,SCT,0.00,WeatherDisplay:10.37,2013-08-13 12:23:00,
2013-08-13 08:25:00,72.7,69.3,29.81,SW,230,9.2,9.2,89,0.00,,SCT,0.00,WeatherDisplay:10.37,2013-08-13 12:25:00,
2013-08-13 08:26:00,72.7,69.3,29.81,West,264,9.2,9.2,89,0.00,,SCT,0.00,WeatherDisplay:10.37,2013-08-13 12:26:00,
2013-08-13 08:28:00,72.7,69.3,29.81,WSW,255,9.2,9.2,89,0.00,,SCT,0.00,WeatherDisplay:10.37,2013-08-13 12:28:00,
2013-08-13 08:29:00,72.7,69.3,29.81,WSW,251,9.2,9.2,89,0.00,,SCT,0.00,WeatherDisplay:10.37,2013-08-13 12:29:00,
2013-08-13 08:31:00,72.8,69.4,29.81,WSW,248,7.0,7.0,89,0.00,,SCT,0.00,WeatherDisplay:10.37,2013-08-13 12:31:00,
2013-08-13 08:33:00,72.8,69.4,29.81,WSW,254,9.2,9.2,89,0.00,,SCT,0.00,WeatherDisplay:10.37,2013-08-13 12:33:00,
2013-08-13 08:36:00,73.0,69.6,29.81,WSW,254,6.0,6.0,89,0.00,,SCT,0.00,WeatherDisplay:10.37,2013-08-13 12:36:00,
2013-08-13 08:38:00,73.0,69.6,29.81,WSW,258,0.0,0.0,89,0.00,,SCT,0.00,WeatherDisplay:10.37,2013-08-13 12:38:00,
2013-08-13 08:39:00,73.0,69.6,29.81,WSW,257,0.0,0.0,89,0.00,,SCT,0.00,WeatherDisplay:10.37,2013-08-13 12:39:00,
2013-08-13 08:40:00,73.0,69.6,29.81,WSW,257,4.6,4.6,89,0.00,,SCT,0.00,WeatherDisplay:10.37,2013-08-13 12:40:00,
2013-08-13 08:43:00,73.2,69.8,29.81,WSW,254,4.6,4.6,89,0.00,,SCT,0.00,WeatherDisplay:10.37,2013-08-13 12:43:00,
2013-08-13 08:45:00,73.2,69.8,29.81,WSW,249,6.9,6.9,89,0.00,,SCT,0.00,WeatherDisplay:10.37,2013-08-13 12:45:00,
2013-08-13 08:46:00,73.2,69.8,29.81,WSW,251,6.9,6.9,89,0.00,,SCT,0.00,WeatherDisplay:10.37,2013-08-13 12:46:00,
2013-08-13 08:48:00,73.2,69.8,29.81,WSW,242,6.9,6.9,89,0.00,,SCT,0.00,WeatherDisplay:10.37,2013-08-13 12:48:00,
2013-08-13 08:50:00,73.3,69.9,29.81,WSW,250,8.1,8.1,89,0.00,,SCT,0.00,WeatherDisplay:10.37,2013-08-13 12:50:00,
2013-08-13 08:51:00,73.3,69.9,29.80,SW,232,8.1,8.1,89,0.00,,SCT,0.00,WeatherDisplay:10.37,2013-08-13 12:51:00,
2013-08-13 08:54:00,73.5,70.1,29.80,WSW,252,9.2,9.2,89,0.00,,SCT,0.00,WeatherDisplay:10.37,2013-08-13 12:54:00,
2013-08-13 08:55:00,73.5,70.1,29.80,WSW,247,8.1,8.1,89,0.00,,SCT,0.00,WeatherDisplay:10.37,2013-08-13 12:55:00,
2013-08-13 08:57:00,73.5,70.1,29.80,WSW,257,7.0,7.0,89,0.00,,SCT,0.00,WeatherDisplay:10.37,2013-08-13 12:57:00,
2013-08-13 08:58:00,73.5,70.1,29.80,WSW,255,6.9,6.9,89,0.00,,SCT,0.00,WeatherDisplay:10.37,2013-08-13 12:58:00,
2013-08-13 08:59:00,73.5,70.1,29.80,WSW,258,9.2,9.2,89,0.00,,SCT,0.00,WeatherDisplay:10.37,2013-08-13 12:59:00,
2013-08-13 09:02:00,73.5,70.1,29.80,WSW,243,6.9,6.9,89,0.00,,SCT,0.00,WeatherDisplay:10.37,2013-08-13 13:02:00,
2013-08-13 09:04:00,73.7,70.3,29.81,West,261,6.9,6.9,89,0.00,,SCT,0.00,WeatherDisplay:10.37,2013-08-13 13:04:00,
2013-08-13 09:06:00,73.7,70.3,29.81,WSW,251,5.8,6.2,89,0.00,,SCT,0.00,WeatherDisplay:10.37,2013-08-13 13:06:00,
2013-08-13 09:08:00,73.7,70.3,29.81,WSW,256,6.9,6.9,89,0.00,CLR,SCT,0.00,WeatherDisplay:10.37,2013-08-13 13:08:00,
2013-08-13 09:12:00,73.7,70.3,29.81,WSW,244,6.0,6.0,89,0.00,CLR,SCT,0.00,WeatherDisplay:10.37,2013-08-13 13:12:00,
2013-08-13 09:14:00,73.7,70.3,29.81,WSW,244,4.6,4.6,89,0.00,CLR,SCT,0.00,WeatherDisplay:10.37,2013-08-13 13:14:00,
2013-08-13 09:15:00,73.7,70.3,29.81,West,263,6.9,6.9,89,0.00,CLR,SCT,0.00,WeatherDisplay:10.37,2013-08-13 13:15:00,
2013-08-13 09:17:00,73.7,70.3,29.81,West,269,5.8,5.8,89,0.00,CLR,SCT,0.00,WeatherDisplay:10.37,2013-08-13 13:17:00,
2013-08-13 09:19:00,73.7,70.3,29.81,WSW,238,7.0,7.0,89,0.00,CLR,SCT,0.00,WeatherDisplay:10.37,2013-08-13 13:19:00,
2013-08-13 09:20:00,73.7,70.3,29.81,SW,230,6.9,6.9,89,0.00,CLR,SCT,0.00,WeatherDisplay:10.37,2013-08-13 13:20:00,
2013-08-13 09:24:00,73.9,70.5,29.81,WSW,254,5.0,5.0,89,0.00,CLR,SCT,0.00,WeatherDisplay:10.37,2013-08-13 13:24:00,
2013-08-13 09:25:00,73.9,70.5,29.81,SW,232,6.9,6.9,89,0.00,CLR,SCT,0.00,WeatherDisplay:10.37,2013-08-13 13:25:00,
2013-08-13 09:28:00,74.0,70.6,29.81,WSW,241,3.5,3.5,89,0.00,CLR,SCT,0.00,WeatherDisplay:10.37,2013-08-13 13:28:00,
2013-08-13 09:30:00,74.0,70.2,29.81,SW,229,10.4,10.4,88,0.00,CLR,SCT,0.00,WeatherDisplay:10.37,2013-08-13 13:30:00,
2013-08-13 09:32:00,74.0,70.2,29.81,WSW,252,9.2,9.2,88,0.00,CLR,SCT,0.00,WeatherDisplay:10.37,2013-08-13 13:32:00,
2013-08-13 09:33:00,74.2,70.4,29.81,WSW,257,6.9,6.9,88,0.00,CLR,SCT,0.00,WeatherDisplay:10.37,2013-08-13 13:33:00,
2013-08-13 09:36:00,74.2,70.4,29.80,WSW,250,8.1,8.1,88,0.00,CLR,SCT,0.00,WeatherDisplay:10.37,2013-08-13 13:36:00,
2013-08-13 09:38:00,74.4,70.6,29.80,West,271,10.4,10.4,88,0.00,CLR,SCT,0.00,WeatherDisplay:10.37,2013-08-13 13:38:00,
2013-08-13 09:41:00,74.6,70.8,29.80,WSW,257,8.0,8.0,88,0.00,CLR,SCT,0.00,WeatherDisplay:10.37,2013-08-13 13:41:00,
2013-08-13 09:44:00,74.7,70.9,29.80,WSW,237,7.0,7.0,88,0.00,CLR,SCT,0.00,WeatherDisplay:10.37,2013-08-13 13:44:00,
2013-08-13 09:46:00,74.9,71.1,29.80,West,261,13.8,13.8,88,0.00,CLR,SCT,0.00,WeatherDisplay:10.37,2013-08-13 13:46:00,
2013-08-13 09:47:00,74.9,71.1,29.80,SW,231,11.5,11.5,88,0.00,CLR,SCT,0.00,WeatherDisplay:10.37,2013-08-13 13:47:00,
2013-08-13 09:49:00,75.1,71.3,29.80,WSW,250,10.4,10.4,88,0.00,CLR,SCT,0.00,WeatherDisplay:10.37,2013-08-13 13:49:00,
2013-08-13 09:51:00,75.1,71.0,29.80,West,259,10.4,10.4,87,0.00,CLR,SCT,0.00,WeatherDisplay:10.37,2013-08-13 13:51:00,
2013-08-13 09:52:00,75.3,71.5,29.80,WSW,242,6.0,6.0,88,0.00,CLR,SCT,0.00,WeatherDisplay:10.37,2013-08-13 13:52:00,
2013-08-13 09:54:00,75.3,71.2,29.80,WSW,246,13.8,13.8,87,0.00,CLR,SCT,0.00,WeatherDisplay:10.37,2013-08-13 13:54:00,
2013-08-13 09:55:00,75.4,71.3,29.80,WSW,248,12.7,12.7,87,0.00,CLR,SCT,0.00,WeatherDisplay:10.37,2013-08-13 13:55:00,
2013-08-13 09:56:00,75.4,71.3,29.80,WSW,256,12.7,12.7,87,0.00,CLR,SCT,0.00,WeatherDisplay:10.37,2013-08-13 13:56:00,
2013-08-13 10:00:00,75.4,70.9,29.80,WSW,251,11.5,11.5,86,0.00,CLR,SCT,0.00,WeatherDisplay:10.37,2013-08-13 14:00:00,
2013-08-13 10:01:00,75.4,70.9,29.80,West,275,11.5,11.5,86,0.00,CLR,SCT,0.00,WeatherDisplay:10.37,2013-08-13 14:01:00,
2013-08-13 10:02:00,75.4,70.9,29.80,WSW,246,11.0,11.0,86,0.00,CLR,SCT,0.00,WeatherDisplay:10.37,2013-08-13 14:02:00,
2013-08-13 10:03:00,75.4,70.9,29.80,SW,224,11.5,11.5,86,0.00,CLR,SCT,0.00,WeatherDisplay:10.37,2013-08-13 14:03:00,
2013-08-13 10:04:00,75.4,70.9,29.80,SW,236,10.4,10.4,86,0.00,CLR,SCT,0.00,WeatherDisplay:10.37,2013-08-13 14:04:00,
2013-08-13 10:06:00,75.4,70.9,29.80,West,261,15.0,15.0,86,0.00,,SCT,0.00,WeatherDisplay:10.37,2013-08-13 14:06:00,
2013-08-13 10:08:00,75.4,70.9,29.80,WSW,257,15.0,15.0,86,0.00,,SCT,0.00,WeatherDisplay:10.37,2013-08-13 14:08:00,
2013-08-13 10:12:00,75.4,70.9,29.80,SW,219,15.0,15.0,86,0.00,,SCT,0.00,WeatherDisplay:10.37,2013-08-13 14:12:00,
2013-08-13 10:13:00,75.4,70.9,29.80,WSW,247,11.5,11.5,86,0.00,,SCT,0.00,WeatherDisplay:10.37,2013-08-13 14:13:00,
2013-08-13 10:18:00,75.8,71.3,29.80,West,259,17.3,17.3,86,0.00,,SCT,0.00,WeatherDisplay:10.37,2013-08-13 14:18:00,
2013-08-13 10:19:00,76.0,71.2,29.80,SW,236,16.1,16.1,85,0.00,,SCT,0.00,WeatherDisplay:10.37,2013-08-13 14:19:00,
2013-08-13 10:20:00,76.0,71.2,29.80,WSW,252,12.7,12.7,85,0.00,,SCT,0.00,WeatherDisplay:10.37,2013-08-13 14:20:00,
2013-08-13 10:21:00,76.0,71.2,29.80,WSW,254,12.7,12.7,85,0.00,,SCT,0.00,WeatherDisplay:10.37,2013-08-13 14:21:00,
2013-08-13 10:22:00,76.1,71.3,29.80,WSW,256,10.4,10.4,85,0.00,,SCT,0.00,WeatherDisplay:10.37,2013-08-13 14:22:00,
2013-08-13 10:23:00,76.1,71.3,29.80,West,275,11.5,11.5,85,0.00,,SCT,0.00,WeatherDisplay:10.37,2013-08-13 14:23:00,
2013-08-13 10:25:00,76.3,71.5,29.80,WSW,258,12.7,12.7,85,0.00,,SCT,0.00,WeatherDisplay:10.37,2013-08-13 14:25:00,
2013-08-13 10:26:00,76.5,71.7,29.79,SW,236,12.7,12.7,85,0.00,,SCT,0.00,WeatherDisplay:10.37,2013-08-13 14:26:00,
2013-08-13 10:27:00,76.5,71.7,29.79,WSW,238,11.0,11.0,85,0.00,,SCT,0.00,WeatherDisplay:10.37,2013-08-13 14:27:00,
2013-08-13 10:29:00,76.5,71.3,29.79,WSW,249,11.5,11.5,84,0.00,,SCT,0.00,WeatherDisplay:10.37,2013-08-13 14:29:00,
2013-08-13 10:31:00,76.7,71.5,29.79,WSW,244,9.2,9.2,84,0.00,,SCT,0.00,WeatherDisplay:10.37,2013-08-13 14:31:00,
2013-08-13 10:34:00,76.7,71.5,29.79,WSW,243,13.0,13.0,84,0.00,,SCT,0.00,WeatherDisplay:10.37,2013-08-13 14:34:00,
2013-08-13 10:35:00,76.8,71.6,29.79,WSW,254,15.0,15.0,84,0.00,,SCT,0.00,WeatherDisplay:10.37,2013-08-13 14:35:00,
2013-08-13 10:36:00,76.8,71.6,29.79,WSW,255,15.0,15.0,84,0.00,,SCT,0.00,WeatherDisplay:10.37,2013-08-13 14:36:00,
2013-08-13 10:39:00,76.8,71.2,29.80,West,261,17.3,17.3,83,0.00,,SCT,0.00,WeatherDisplay:10.37,2013-08-13 14:39:00,
2013-08-13 10:40:00,76.8,71.2,29.80,West,260,17.3,17.3,83,0.00,,SCT,0.00,WeatherDisplay:10.37,2013-08-13 14:40:00,
2013-08-13 10:41:00,76.8,71.2,29.80,WSW,252,17.3,17.3,83,0.00,,SCT,0.00,WeatherDisplay:10.37,2013-08-13 14:41:00,
2013-08-13 10:44:00,76.8,71.2,29.80,WSW,242,11.5,11.5,83,0.00,,SCT,0.00,WeatherDisplay:10.37,2013-08-13 14:44:00,
2013-08-13 10:45:00,76.8,71.2,29.80,WSW,244,10.4,10.4,83,0.00,,SCT,0.00,WeatherDisplay:10.37,2013-08-13 14:45:00,
2013-08-13 10:49:00,76.8,71.2,29.80,West,262,17.3,17.3,83,0.00,,SCT,0.00,WeatherDisplay:10.37,2013-08-13 14:49:00,
2013-08-13 10:50:00,76.8,71.2,29.80,West,261,11.5,11.5,83,0.00,,SCT,0.00,WeatherDisplay:10.37,2013-08-13 14:50:00,
2013-08-13 10:51:00,76.8,71.2,29.80,West,270,11.5,11.5,83,0.00,,SCT,0.00,WeatherDisplay:10.37,2013-08-13 14:51:00,
2013-08-13 10:55:00,76.8,70.9,29.80,WSW,252,15.0,15.0,82,0.00,,SCT,0.00,WeatherDisplay:10.37,2013-08-13 14:55:00,
2013-08-13 10:56:00,76.8,70.9,29.80,SW,232,15.0,15.0,82,0.00,,SCT,0.00,WeatherDisplay:10.37,2013-08-13 14:56:00,
2013-08-13 10:57:00,76.8,70.9,29.79,SW,231,16.1,16.1,82,0.00,,SCT,0.00,WeatherDisplay:10.37,2013-08-13 14:57:00,
2013-08-13 10:59:00,76.8,71.2,29.79,West,262,7.0,7.0,83,0.00,,SCT,0.00,WeatherDisplay:10.37,2013-08-13 14:59:00,
2013-08-13 11:02:00,77.0,71.1,29.79,West,259,13.8,13.8,82,0.00,,SCT,0.00,WeatherDisplay:10.37,2013-08-13 15:02:00,
2013-08-13 11:04:00,77.0,71.4,29.79,SW,222,12.7,12.7,83,0.00,,SCT,0.00,WeatherDisplay:10.37,2013-08-13 15:04:00,
2013-08-13 11:06:00,77.2,71.3,29.80,SW,236,12.7,12.7,82,0.00,,SCT,0.00,WeatherDisplay:10.37,2013-08-13 15:06:00,
2013-08-13 11:07:00,77.2,71.3,29.80,WSW,238,16.1,16.1,82,0.00,,SCT,0.00,WeatherDisplay:10.37,2013-08-13 15:07:00,
2013-08-13 11:09:00,77.2,71.3,29.80,SW,223,12.7,12.7,82,0.00,,SCT,0.00,WeatherDisplay:10.37,2013-08-13 15:09:00,
2013-08-13 11:10:00,77.2,71.3,29.80,SW,235,11.5,11.5,82,0.00,,SCT,0.00,WeatherDisplay:10.37,2013-08-13 15:10:00,
2013-08-13 11:13:00,77.2,70.9,29.80,WSW,251,18.4,18.4,81,0.00,,SCT,0.00,WeatherDisplay:10.37,2013-08-13 15:13:00,
2013-08-13 11:14:00,77.2,71.3,29.80,West,265,11.5,11.5,82,0.00,,SCT,0.00,WeatherDisplay:10.37,2013-08-13 15:14:00,
2013-08-13 11:15:00,77.4,71.1,29.80,WSW,250,13.8,13.8,81,0.00,,SCT,0.00,WeatherDisplay:10.37,2013-08-13 15:15:00,
2013-08-13 11:17:00,77.4,71.5,29.79,WSW,242,11.5,11.5,82,0.00,,SCT,0.00,WeatherDisplay:10.37,2013-08-13 15:17:00,
2013-08-13 11:18:00,77.4,71.1,29.79,WSW,249,15.0,15.0,81,0.00,,SCT,0.00,WeatherDisplay:10.37,2013-08-13 15:18:00,
2013-08-13 11:21:00,77.6,71.7,29.79,West,259,11.5,11.5,82,0.00,,SCT,0.00,WeatherDisplay:10.37,2013-08-13 15:21:00,
2013-08-13 11:22:00,77.6,71.3,29.80,WSW,240,11.5,11.5,81,0.00,,SCT,0.00,WeatherDisplay:10.37,2013-08-13 15:22:00,
2013-08-13 11:23:00,77.6,71.3,29.80,WNW,283,13.8,13.8,81,0.00,,SCT,0.00,WeatherDisplay:10.37,2013-08-13 15:23:00,
2013-08-13 11:26:00,77.7,71.4,29.80,WSW,251,11.5,11.5,81,0.00,,SCT,0.00,WeatherDisplay:10.37,2013-08-13 15:26:00,
2013-08-13 11:28:00,77.9,72.0,29.79,WSW,239,12.7,12.7,82,0.00,,SCT,0.00,WeatherDisplay:10.37,2013-08-13 15:28:00,
2013-08-13 11:29:00,77.9,71.6,29.79,SW,225,9.2,9.2,81,0.00,,SCT,0.00,WeatherDisplay:10.37,2013-08-13 15:29:00,
2013-08-13 11:31:00,78.1,72.2,29.80,SW,235,8.1,8.1,82,0.00,,SCT,0.00,WeatherDisplay:10.37,2013-08-13 15:31:00,
2013-08-13 11:33:00,78.3,72.0,29.80,SW,234,9.2,9.2,81,0.00,,SCT,0.00,WeatherDisplay:10.37,2013-08-13 15:33:00,
2013-08-13 11:34:00,78.5,72.5,29.79,WSW,242,8.1,8.1,82,0.00,,SCT,0.00,WeatherDisplay:10.37,2013-08-13 15:34:00,
2013-08-13 11:36:00,78.5,72.2,29.79,SW,234,15.0,15.0,81,0.00,,SCT,0.00,WeatherDisplay:10.37,2013-08-13 15:36:00,
2013-08-13 11:38:00,78.5,71.8,29.79,WSW,241,17.3,17.3,80,0.00,,SCT,0.00,WeatherDisplay:10.37,2013-08-13 15:38:00,
2013-08-13 11:39:00,78.5,71.4,29.79,SW,218,11.5,11.5,79,0.00,,SCT,0.00,WeatherDisplay:10.37,2013-08-13 15:39:00,
2013-08-13 11:42:00,78.5,72.2,29.79,WSW,243,9.2,9.2,81,0.00,,SCT,0.00,WeatherDisplay:10.37,2013-08-13 15:42:00,
2013-08-13 11:45:00,78.6,71.9,29.79,WSW,248,13.0,13.0,80,0.00,,SCT,0.00,WeatherDisplay:10.37,2013-08-13 15:45:00,
2013-08-13 11:46:00,78.6,71.5,29.79,WNW,290,12.7,12.7,79,0.00,,SCT,0.00,WeatherDisplay:10.37,2013-08-13 15:46:00,
2013-08-13 11:49:00,78.8,71.7,29.79,SSW,204,12.7,12.7,79,0.00,,SCT,0.00,WeatherDisplay:10.37,2013-08-13 15:49:00,
2013-08-13 11:51:00,78.8,72.1,29.79,SW,217,11.5,11.5,80,0.00,,SCT,0.00,WeatherDisplay:10.37,2013-08-13 15:51:00,
2013-08-13 11:55:00,79.0,71.6,29.79,SW,232,13.8,13.8,78,0.00,,SCT,0.00,WeatherDisplay:10.37,2013-08-13 15:55:00,
2013-08-13 11:56:00,79.0,71.6,29.79,SW,217,13.8,13.8,78,0.00,,SCT,0.00,WeatherDisplay:10.37,2013-08-13 15:56:00,
2013-08-13 12:01:00,79.0,71.9,29.79,SW,232,10.4,10.4,79,0.00,,SCT,0.00,WeatherDisplay:10.37,2013-08-13 16:01:00,
2013-08-13 12:02:00,78.8,71.7,29.79,WSW,242,5.8,6.3,79,0.00,,SCT,0.00,WeatherDisplay:10.37,2013-08-13 16:02:00,
2013-08-13 12:03:00,79.0,71.9,29.79,WSW,248,8.1,8.1,79,0.00,,SCT,0.00,WeatherDisplay:10.37,2013-08-13 16:03:00,
2013-08-13 12:05:00,79.0,71.9,29.79,WSW,244,15.0,15.0,79,0.00,,SCT,0.00,WeatherDisplay:10.37,2013-08-13 16:05:00,
2013-08-13 12:06:00,78.8,71.4,29.79,WSW,247,20.0,20.0,78,0.00,,SCT,0.00,WeatherDisplay:10.37,2013-08-13 16:06:00,
2013-08-13 12:09:00,78.8,71.4,29.79,West,261,10.4,10.4,78,0.00,,SCT,0.00,WeatherDisplay:10.37,2013-08-13 16:09:00,
2013-08-13 12:11:00,78.6,70.8,29.79,WSW,250,13.8,13.8,77,0.00,,SCT,0.00,WeatherDisplay:10.37,2013-08-13 16:11:00,
2013-08-13 12:12:00,78.6,71.2,29.79,West,276,14.0,14.0,78,0.00,,SCT,0.00,WeatherDisplay:10.37,2013-08-13 16:12:00,
2013-08-13 12:15:00,78.8,71.4,29.78,SSW,202,13.8,13.8,78,0.00,,SCT,0.00,WeatherDisplay:10.37,2013-08-13 16:15:00,
2013-08-13 12:16:00,78.8,71.4,29.78,WSW,257,15.0,15.0,78,0.00,,SCT,0.00,WeatherDisplay:10.37,2013-08-13 16:16:00,
2013-08-13 12:17:00,79.0,71.2,29.78,SW,228,15.0,15.0,77,0.00,,SCT,0.00,WeatherDisplay:10.37,2013-08-13 16:17:00,
2013-08-13 12:22:00,79.2,71.4,29.78,West,265,15.0,15.0,77,0.00,,SCT,0.00,WeatherDisplay:10.37,2013-08-13 16:22:00,
2013-08-13 12:23:00,79.2,71.7,29.78,West,259,12.7,12.7,78,0.00,,SCT,0.00,WeatherDisplay:10.37,2013-08-13 16:23:00,
2013-08-13 12:24:00,79.2,71.4,29.78,SW,214,16.1,16.1,77,0.00,,SCT,0.00,WeatherDisplay:10.37,2013-08-13 16:24:00,
2013-08-13 12:26:00,79.4,71.6,29.78,WSW,255,17.3,17.3,77,0.00,,SCT,0.00,WeatherDisplay:10.37,2013-08-13 16:26:00,
2013-08-13 12:28:00,79.4,71.6,29.78,WSW,246,16.1,16.1,77,0.00,,SCT,0.00,WeatherDisplay:10.37,2013-08-13 16:28:00,
2013-08-13 12:29:00,79.6,71.8,29.78,WSW,248,12.7,12.7,77,0.00,,SCT,0.00,WeatherDisplay:10.37,2013-08-13 16:29:00,
2013-08-13 12:32:00,79.6,71.8,29.78,WSW,254,11.5,11.5,77,0.00,,SCT,0.00,WeatherDisplay:10.37,2013-08-13 16:32:00,
2013-08-13 12:33:00,79.8,71.9,29.78,SSW,202,13.0,13.0,77,0.00,,SCT,0.00,WeatherDisplay:10.37,2013-08-13 16:33:00,
2013-08-13 12:35:00,79.8,71.9,29.78,WSW,253,13.0,13.0,77,0.00,,SCT,0.00,WeatherDisplay:10.37,2013-08-13 16:35:00,
2013-08-13 12:36:00,79.8,71.9,29.78,WSW,255,12.7,12.7,77,0.00,,SCT,0.00,WeatherDisplay:10.37,2013-08-13 16:36:00,
2013-08-13 12:39:00,79.8,71.9,29.78,WSW,253,12.7,12.7,77,0.00,,SCT,0.00,WeatherDisplay:10.37,2013-08-13 16:39:00,
2013-08-13 12:41:00,79.6,71.4,29.78,WSW,252,15.0,15.0,76,0.00,,SCT,0.00,WeatherDisplay:10.37,2013-08-13 16:41:00,
2013-08-13 12:45:00,79.2,71.4,29.78,WSW,252,16.1,16.1,77,0.00,,SCT,0.00,WeatherDisplay:10.37,2013-08-13 16:45:00,
2013-08-13 12:46:00,79.2,71.4,29.78,WSW,243,16.1,16.1,77,0.00,,SCT,0.00,WeatherDisplay:10.37,2013-08-13 16:46:00,
2013-08-13 12:47:00,79.4,71.6,29.78,West,261,11.5,11.5,77,0.00,,SCT,0.00,WeatherDisplay:10.37,2013-08-13 16:47:00,
2013-08-13 12:51:00,79.4,71.6,29.77,WSW,238,13.0,13.0,77,0.00,,SCT,0.00,WeatherDisplay:10.37,2013-08-13 16:51:00,
2013-08-13 12:52:00,79.4,71.2,29.78,WSW,252,12.7,12.7,76,0.00,,SCT,0.00,WeatherDisplay:10.37,2013-08-13 16:52:00,
2013-08-13 12:53:00,79.4,71.2,29.78,WSW,244,12.7,12.7,76,0.00,,SCT,0.00,WeatherDisplay:10.37,2013-08-13 16:53:00,
2013-08-13 12:55:00,79.4,71.6,29.77,West,260,11.5,11.5,77,0.00,,SCT,0.00,WeatherDisplay:10.37,2013-08-13 16:55:00,
2013-08-13 12:57:00,79.6,71.8,29.77,SW,233,6.9,6.9,77,0.00,,SCT,0.00,WeatherDisplay:10.37,2013-08-13 16:57:00,
2013-08-13 12:58:00,79.6,71.8,29.77,WSW,250,6.9,6.9,77,0.00,,SCT,0.00,WeatherDisplay:10.37,2013-08-13 16:58:00,
2013-08-13 12:59:00,79.8,71.9,29.77,WSW,237,11.5,11.5,77,0.00,,SCT,0.00,WeatherDisplay:10.37,2013-08-13 16:59:00,
2013-08-13 13:01:00,79.9,72.0,29.77,WSW,254,8.1,8.1,77,0.00,,SCT,0.00,WeatherDisplay:10.37,2013-08-13 17:01:00,
2013-08-13 13:02:00,79.9,72.0,29.77,WSW,257,9.2,9.2,77,0.00,,SCT,0.00,WeatherDisplay:10.37,2013-08-13 17:02:00,
2013-08-13 13:03:00,79.9,72.0,29.77,West,265,17.3,17.3,77,0.00,,SCT,0.00,WeatherDisplay:10.37,2013-08-13 17:03:00,
2013-08-13 13:05:00,79.9,72.0,29.77,WSW,242,9.2,9.2,77,0.00,,SCT,0.00,WeatherDisplay:10.37,2013-08-13 17:05:00,
2013-08-13 13:06:00,80.1,72.2,29.77,SW,234,15.0,15.0,77,0.00,,SCT,0.00,WeatherDisplay:10.37,2013-08-13 17:06:00,
2013-08-13 13:07:00,80.1,71.8,29.77,West,272,11.5,11.5,76,0.00,,SCT,0.00,WeatherDisplay:10.37,2013-08-13 17:07:00,
2013-08-13 13:08:00,80.1,72.2,29.77,West,259,16.1,16.1,77,0.00,,SCT,0.00,WeatherDisplay:10.37,2013-08-13 17:08:00,
2013-08-13 13:13:00,80.1,71.5,29.77,WNW,298,11.5,11.5,75,0.00,,SCT,0.00,WeatherDisplay:10.37,2013-08-13 17:13:00,
2013-08-13 13:17:00,79.9,71.3,29.77,West,259,15.0,15.0,75,0.00,,SCT,0.00,WeatherDisplay:10.37,2013-08-13 17:17:00,
2013-08-13 13:20:00,79.8,71.6,29.77,WSW,258,15.0,15.0,76,0.00,,SCT,0.00,WeatherDisplay:10.37,2013-08-13 17:20:00,
2013-08-13 13:22:00,79.8,71.6,29.77,WSW,252,11.5,11.5,76,0.00,,SCT,0.00,WeatherDisplay:10.37,2013-08-13 17:22:00,
2013-08-13 13:24:00,79.8,71.6,29.77,West,271,10.4,10.4,76,0.00,,SCT,0.00,WeatherDisplay:10.37,2013-08-13 17:24:00,
2013-08-13 13:25:00,79.8,71.6,29.77,WSW,252,5.8,5.8,76,0.00,,SCT,0.00,WeatherDisplay:10.37,2013-08-13 17:25:00,
2013-08-13 13:27:00,79.8,71.6,29.77,West,259,15.0,15.0,76,0.00,,SCT,0.00,WeatherDisplay:10.37,2013-08-13 17:27:00,
2013-08-13 13:30:00,79.8,71.2,29.77,West,270,11.5,11.5,75,0.00,,SCT,0.00,WeatherDisplay:10.37,2013-08-13 17:30:00,
2013-08-13 13:31:00,79.8,71.6,29.77,WSW,253,11.5,11.5,76,0.00,,SCT,0.00,WeatherDisplay:10.37,2013-08-13 17:31:00,
2013-08-13 13:32:00,79.8,71.6,29.77,West,260,11.5,11.5,76,0.00,,SCT,0.00,WeatherDisplay:10.37,2013-08-13 17:32:00,
2013-08-13 13:34:00,79.9,71.7,29.77,West,270,11.5,11.5,76,0.00,,SCT,0.00,WeatherDisplay:10.37,2013-08-13 17:34:00,
2013-08-13 13:36:00,80.1,72.2,29.77,West,266,12.7,12.7,77,0.00,,SCT,0.00,WeatherDisplay:10.37,2013-08-13 17:36:00,
2013-08-13 13:37:00,80.1,71.8,29.77,West,259,10.4,10.4,76,0.00,,SCT,0.00,WeatherDisplay:10.37,2013-08-13 17:37:00,
2013-08-13 13:39:00,80.3,72.0,29.77,WSW,252,9.2,9.2,76,0.00,,SCT,0.00,WeatherDisplay:10.37,2013-08-13 17:39:00,
2013-08-13 13:41:00,80.1,71.8,29.77,WSW,242,5.8,5.8,76,0.00,,SCT,0.00,WeatherDisplay:10.37,2013-08-13 17:41:00,
2013-08-13 13:42:00,80.1,71.8,29.77,SW,231,5.8,5.8,76,0.00,,SCT,0.00,WeatherDisplay:10.37,2013-08-13 17:42:00,
2013-08-13 13:43:00,80.1,71.5,29.77,SW,215,6.0,6.0,75,0.00,,SCT,0.00,WeatherDisplay:10.37,2013-08-13 17:43:00,
2013-08-13 13:48:00,79.8,71.2,29.78,West,262,10.4,10.4,75,0.00,,SCT,0.00,WeatherDisplay:10.37,2013-08-13 17:48:00,
2013-08-13 13:49:00,79.6,71.0,29.78,West,261,13.8,13.8,75,0.00,,SCT,0.00,WeatherDisplay:10.37,2013-08-13 17:49:00,
2013-08-13 13:50:00,79.6,70.6,29.78,West,267,13.8,13.8,74,0.00,,SCT,0.00,WeatherDisplay:10.37,2013-08-13 17:50:00,
2013-08-13 13:51:00,79.4,70.4,29.78,WSW,256,13.8,13.8,74,0.00,,SCT,0.00,WeatherDisplay:10.37,2013-08-13 17:51:00,
2013-08-13 13:52:00,79.2,70.6,29.78,West,265,9.2,9.2,75,0.00,,SCT,0.00,WeatherDisplay:10.37,2013-08-13 17:52:00,
2013-08-13 13:55:00,78.6,70.4,29.78,WSW,250,15.0,15.0,76,0.03,RA,SCT,0.03,WeatherDisplay:10.37,2013-08-13 17:55:00,
2013-08-13 13:56:00,78.3,70.5,29.78,WSW,248,15.0,15.0,77,0.03,RA,SCT,0.04,WeatherDisplay:10.37,2013-08-13 17:56:00,
2013-08-13 13:57:00,78.1,70.3,29.78,WSW,258,18.4,18.4,77,0.04,RA,SCT,0.04,WeatherDisplay:10.37,2013-08-13 17:57:00,
2013-08-13 13:58:00,77.7,70.3,29.78,WSW,255,10.4,10.4,78,0.04,RA,SCT,0.04,WeatherDisplay:10.37,2013-08-13 17:58:00,
2013-08-13 14:02:00,76.5,69.1,29.78,West,259,16.1,16.1,78,0.08,RA,SCT,0.08,WeatherDisplay:10.37,2013-08-13 18:02:00,
2013-08-13 14:04:00,75.8,68.8,29.79,SW,231,12.7,12.7,79,0.10,RA,SCT,0.10,WeatherDisplay:10.37,2013-08-13 18:04:00,
2013-08-13 14:06:00,75.1,68.5,29.80,West,271,12.7,12.7,80,0.12,RA,SCT,0.12,WeatherDisplay:10.37,2013-08-13 18:06:00,
2013-08-13 14:07:00,74.9,68.3,29.80,WSW,243,12.7,12.7,80,0.12,RA,SCT,0.12,WeatherDisplay:10.37,2013-08-13 18:07:00,
2013-08-13 14:11:00,73.9,67.7,29.80,WSW,254,11.5,11.5,81,0.16,RA,SCT,0.16,WeatherDisplay:10.37,2013-08-13 18:11:00,
2013-08-13 14:12:00,73.7,67.5,29.80,WSW,257,10.0,10.0,81,0.16,RA,SCT,0.16,WeatherDisplay:10.37,2013-08-13 18:12:00,
2013-08-13 14:13:00,73.5,67.3,29.80,SW,215,10.4,10.4,81,0.16,RA,SCT,0.16,WeatherDisplay:10.37,2013-08-13 18:13:00,
2013-08-13 14:16:00,73.0,66.8,29.80,SW,227,6.0,6.0,81,0.16,RA,SCT,0.16,WeatherDisplay:10.37,2013-08-13 18:16:00,
2013-08-13 14:17:00,73.0,67.2,29.80,WSW,244,8.1,8.1,82,0.16,RA,SCT,0.16,WeatherDisplay:10.37,2013-08-13 18:17:00,
2013-08-13 14:18:00,72.8,67.0,29.80,WSW,244,4.6,4.6,82,0.16,RA,SCT,0.16,WeatherDisplay:10.37,2013-08-13 18:18:00,
2013-08-13 14:19:00,72.7,66.9,29.80,SW,223,3.5,3.5,82,0.17,RA,SCT,0.17,WeatherDisplay:10.37,2013-08-13 18:19:00,
2013-08-13 14:23:00,72.5,66.7,29.80,SW,223,0.0,0.0,82,0.17,RA,SCT,0.17,WeatherDisplay:10.37,2013-08-13 18:23:00,
2013-08-13 14:24:00,72.5,66.7,29.80,SW,223,0.0,0.0,82,0.17,RA,SCT,0.17,WeatherDisplay:10.37,2013-08-13 18:24:00,
2013-08-13 14:27:00,72.5,66.7,29.81,SSW,208,0.0,0.0,82,0.17,RA,SCT,0.17,WeatherDisplay:10.37,2013-08-13 18:27:00,
2013-08-13 14:28:00,72.5,67.0,29.81,SSW,209,3.5,3.5,83,0.17,RA,SCT,0.17,WeatherDisplay:10.37,2013-08-13 18:28:00,
2013-08-13 14:30:00,72.5,67.0,29.81,South,180,3.5,3.5,83,0.17,,SCT,0.17,WeatherDisplay:10.37,2013-08-13 18:30:00,
2013-08-13 14:32:00,72.3,66.8,29.81,South,180,0.0,0.0,83,0.17,,SCT,0.17,WeatherDisplay:10.37,2013-08-13 18:32:00,
2013-08-13 14:33:00,72.3,66.8,29.81,SSW,206,9.2,9.2,83,0.17,,SCT,0.17,WeatherDisplay:10.37,2013-08-13 18:33:00,
2013-08-13 14:36:00,72.1,66.6,29.81,SSW,206,3.5,3.5,83,0.17,,SCT,0.17,WeatherDisplay:10.37,2013-08-13 18:36:00,
2013-08-13 14:39:00,72.0,66.6,29.81,SW,219,5.8,5.8,83,0.17,,SCT,0.17,WeatherDisplay:10.37,2013-08-13 18:39:00,
2013-08-13 14:41:00,72.0,66.6,29.81,SW,218,3.5,4.2,83,0.17,,SCT,0.17,WeatherDisplay:10.37,2013-08-13 18:41:00,
2013-08-13 14:42:00,72.0,66.6,29.81,SSW,205,4.6,4.6,83,0.17,,SCT,0.17,WeatherDisplay:10.37,2013-08-13 18:42:00,
2013-08-13 14:44:00,71.8,66.4,29.80,SSW,207,3.5,3.5,83,0.17,,SCT,0.17,WeatherDisplay:10.37,2013-08-13 18:44:00,
2013-08-13 14:46:00,71.8,66.4,29.80,West,263,5.8,5.8,83,0.17,,SCT,0.17,WeatherDisplay:10.37,2013-08-13 18:46:00,
2013-08-13 14:49:00,71.8,66.4,29.80,SW,221,0.0,0.0,83,0.17,,SCT,0.17,WeatherDisplay:10.37,2013-08-13 18:49:00,
2013-08-13 14:51:00,72.0,66.9,29.80,SSW,198,4.6,0.0,84,0.17,,SCT,0.17,WeatherDisplay:10.37,2013-08-13 18:51:00,
2013-08-13 14:52:00,72.0,66.9,29.80,SSW,197,3.5,3.5,84,0.17,,SCT,0.17,WeatherDisplay:10.37,2013-08-13 18:52:00,
2013-08-13 14:57:00,72.3,67.2,29.80,SSE,160,4.6,4.6,84,0.13,,SCT,0.17,WeatherDisplay:10.37,2013-08-13 18:57:00,
2013-08-13 14:58:00,72.5,67.4,29.80,SSW,212,5.8,5.8,84,0.13,,SCT,0.17,WeatherDisplay:10.37,2013-08-13 18:58:00,
2013-08-13 14:59:00,72.5,67.4,29.80,SSW,203,4.6,4.6,84,0.12,,SCT,0.17,WeatherDisplay:10.37,2013-08-13 18:59:00,
2013-08-13 15:00:00,72.7,67.6,29.80,SSW,203,3.5,3.5,84,0.11,,SCT,0.17,WeatherDisplay:10.37,2013-08-13 19:00:00,
2013-08-13 15:03:00,73.0,67.9,29.80,WSW,238,4.6,4.6,84,0.07,,SCT,0.17,WeatherDisplay:10.37,2013-08-13 19:03:00,
2013-08-13 15:04:00,73.0,67.9,29.80,SW,217,4.6,4.6,84,0.07,,SCT,0.17,WeatherDisplay:10.37,2013-08-13 19:04:00,
2013-08-13 15:05:00,73.2,68.1,29.79,SW,221,5.0,5.0,84,0.06,,SCT,0.17,WeatherDisplay:10.37,2013-08-13 19:05:00,
2013-08-13 15:07:00,73.5,68.4,29.79,SSW,192,5.8,5.8,84,0.05,,SCT,0.17,WeatherDisplay:10.37,2013-08-13 19:07:00,
2013-08-13 15:10:00,73.7,68.2,29.78,SSW,205,7.0,7.0,83,0.01,,SCT,0.17,WeatherDisplay:10.37,2013-08-13 19:10:00,
2013-08-13 15:11:00,73.9,68.4,29.78,South,179,6.9,6.9,83,0.01,,SCT,0.17,WeatherDisplay:10.37,2013-08-13 19:11:00,
2013-08-13 15:13:00,74.0,68.5,29.78,WSW,240,3.5,3.5,83,0.01,,SCT,0.17,WeatherDisplay:10.37,2013-08-13 19:13:00,
2013-08-13 15:16:00,74.2,68.7,29.78,SSW,192,5.8,5.8,83,0.01,,SCT,0.17,WeatherDisplay:10.37,2013-08-13 19:16:00,
2013-08-13 15:18:00,74.6,69.1,29.78,WSW,250,3.5,3.5,83,0.01,,SCT,0.17,WeatherDisplay:10.37,2013-08-13 19:18:00,
2013-08-13 15:19:00,74.6,69.1,29.78,WSW,244,3.5,3.5,83,0.00,,SCT,0.17,WeatherDisplay:10.37,2013-08-13 19:19:00,
2013-08-13 15:21:00,74.9,69.4,29.78,SSW,210,7.0,7.0,83,0.00,,SCT,0.17,WeatherDisplay:10.37,2013-08-13 19:21:00,
2013-08-13 15:23:00,75.1,69.2,29.78,WSW,251,4.6,4.6,82,0.00,,SCT,0.17,WeatherDisplay:10.37,2013-08-13 19:23:00,
2013-08-13 15:25:00,75.3,69.4,29.78,SSW,192,4.6,4.6,82,0.00,,SCT,0.17,WeatherDisplay:10.37,2013-08-13 19:25:00,
2013-08-13 15:26:00,75.4,69.5,29.78,SSW,192,0.0,0.0,82,0.00,,SCT,0.17,WeatherDisplay:10.37,2013-08-13 19:26:00,
2013-08-13 15:28:00,75.6,69.7,29.78,WSW,251,5.8,5.8,82,0.00,,SCT,0.17,WeatherDisplay:10.37,2013-08-13 19:28:00,
2013-08-13 15:31:00,75.8,69.9,29.78,WSW,256,2.3,2.3,82,0.00,,SCT,0.17,WeatherDisplay:10.37,2013-08-13 19:31:00,
2013-08-13 15:32:00,75.8,69.6,29.78,WSW,254,4.0,4.0,81,0.00,,SCT,0.17,WeatherDisplay:10.37,2013-08-13 19:32:00,
2013-08-13 15:33:00,75.8,69.6,29.78,WSW,258,3.5,3.5,81,0.00,,SCT,0.17,WeatherDisplay:10.37,2013-08-13 19:33:00,
2013-08-13 15:35:00,75.8,69.6,29.78,WSW,257,3.5,3.5,81,0.00,,SCT,0.17,WeatherDisplay:10.37,2013-08-13 19:35:00,
2013-08-13 15:36:00,75.8,69.6,29.78,WSW,248,3.5,3.5,81,0.00,,SCT,0.17,WeatherDisplay:10.37,2013-08-13 19:36:00,
2013-08-13 15:38:00,75.8,69.6,29.78,WSW,248,2.3,2.3,81,0.00,,SCT,0.17,WeatherDisplay:10.37,2013-08-13 19:38:00,
2013-08-13 15:39:00,75.6,69.4,29.78,WSW,249,3.5,3.5,81,0.00,,SCT,0.17,WeatherDisplay:10.37,2013-08-13 19:39:00,
2013-08-13 15:40:00,75.6,69.4,29.78,WSW,250,2.3,2.3,81,0.00,,SCT,0.17,WeatherDisplay:10.37,2013-08-13 19:40:00,
2013-08-13 15:41:00,75.6,69.4,29.78,WSW,250,2.3,0.0,81,0.00,,SCT,0.17,WeatherDisplay:10.37,2013-08-13 19:41:00,
2013-08-13 15:45:00,75.4,69.2,29.80,WSW,251,0.0,0.0,81,0.05,RA,SCT,0.22,WeatherDisplay:10.37,2013-08-13 19:45:00,
2013-08-13 15:46:00,75.3,69.1,29.79,WSW,251,0.0,0.0,81,0.05,RA,SCT,0.22,WeatherDisplay:10.37,2013-08-13 19:46:00,
2013-08-13 15:47:00,75.3,69.1,29.79,WSW,251,0.0,0.0,81,0.05,RA,SCT,0.23,WeatherDisplay:10.37,2013-08-13 19:47:00,
2013-08-13 15:48:00,75.3,69.1,29.78,WSW,253,0.0,0.0,81,0.06,RA,SCT,0.23,WeatherDisplay:10.37,2013-08-13 19:48:00,
2013-08-13 15:52:00,74.9,68.7,29.78,WSW,253,0.0,0.0,81,0.06,RA,SCT,0.23,WeatherDisplay:10.37,2013-08-13 19:52:00,
2013-08-13 15:53:00,74.7,68.5,29.78,WSW,253,0.0,0.0,81,0.06,RA,SCT,0.23,WeatherDisplay:10.37,2013-08-13 19:53:00,
2013-08-13 15:54:00,74.6,68.4,29.78,WSW,253,0.0,0.0,81,0.06,RA,SCT,0.23,WeatherDisplay:10.37,2013-08-13 19:54:00,
2013-08-13 15:56:00,74.4,68.2,29.78,WSW,253,0.0,0.0,81,0.06,RA,SCT,0.23,WeatherDisplay:10.37,2013-08-13 19:56:00,
2013-08-13 15:58:00,74.2,68.0,29.78,WSW,253,0.0,0.0,81,0.06,,SCT,0.23,WeatherDisplay:10.37,2013-08-13 19:58:00,
2013-08-13 16:00:00,74.0,68.2,29.78,WSW,253,0.0,0.0,82,0.08,RA,SCT,0.25,WeatherDisplay:10.37,2013-08-13 20:00:00,
2013-08-13 16:03:00,73.9,68.1,29.78,WSW,253,0.0,0.0,82,0.10,RA,SCT,0.27,WeatherDisplay:10.37,2013-08-13 20:03:00,
2013-08-13 16:06:00,73.5,67.7,29.78,WSW,253,0.0,0.0,82,0.11,RA,SCT,0.28,WeatherDisplay:10.37,2013-08-13 20:06:00,
2013-08-13 16:10:00,73.0,67.2,29.78,WSW,252,0.0,0.0,82,0.11,RA,SCT,0.28,WeatherDisplay:10.37,2013-08-13 20:10:00,
2013-08-13 16:11:00,73.0,67.2,29.78,WSW,250,0.0,0.0,82,0.11,RA,SCT,0.28,WeatherDisplay:10.37,2013-08-13 20:11:00,
2013-08-13 16:12:00,72.8,67.0,29.78,SSW,194,0.0,0.0,82,0.12,RA,SCT,0.29,WeatherDisplay:10.37,2013-08-13 20:12:00,
2013-08-13 16:13:00,72.8,67.0,29.78,SSW,192,0.0,0.0,82,0.12,RA,SCT,0.29,WeatherDisplay:10.37,2013-08-13 20:13:00,
2013-08-13 16:16:00,72.5,67.0,29.78,SSW,192,0.0,0.0,83,0.12,RA,SCT,0.29,WeatherDisplay:10.37,2013-08-13 20:16:00,
2013-08-13 16:17:00,72.3,66.8,29.78,SSW,192,0.0,0.0,83,0.12,RA,SCT,0.29,WeatherDisplay:10.37,2013-08-13 20:17:00,
2013-08-13 16:18:00,72.1,66.6,29.78,SSW,192,0.0,0.0,83,0.13,RA,SCT,0.30,WeatherDisplay:10.37,2013-08-13 20:18:00,
2013-08-13 16:21:00,72.0,66.6,29.77,SSW,192,0.0,0.0,83,0.13,RA,SCT,0.30,WeatherDisplay:10.37,2013-08-13 20:21:00,
2013-08-13 16:23:00,71.8,66.4,29.77,SSW,197,3.5,3.5,83,0.14,RA,SCT,0.31,WeatherDisplay:10.37,2013-08-13 20:23:00,
2013-08-13 16:24:00,71.8,66.4,29.77,South,176,3.5,3.5,83,0.14,RA,SCT,0.31,WeatherDisplay:10.37,2013-08-13 20:24:00,
2013-08-13 16:26:00,71.6,66.2,29.77,SW,227,1.0,1.0,83,0.14,RA,SCT,0.31,WeatherDisplay:10.37,2013-08-13 20:26:00,
2013-08-13 16:29:00,71.6,66.5,29.77,SW,226,1.0,1.0,84,0.14,RA,SCT,0.31,WeatherDisplay:10.37,2013-08-13 20:29:00,
2013-08-13 16:30:00,71.6,66.5,29.77,SW,225,1.1,1.1,84,0.14,RA,SCT,0.31,WeatherDisplay:10.37,2013-08-13 20:30:00,
2013-08-13 16:31:00,71.6,66.5,29.77,SW,225,1.1,0.0,84,0.14,RA,SCT,0.31,WeatherDisplay:10.37,2013-08-13 20:31:00,
2013-08-13 16:32:00,71.6,66.5,29.77,SSW,205,0.0,0.0,84,0.14,RA,SCT,0.31,WeatherDisplay:10.37,2013-08-13 20:32:00,
2013-08-13 16:35:00,71.6,66.5,29.77,South,176,3.5,3.5,84,0.14,,SCT,0.31,WeatherDisplay:10.37,2013-08-13 20:35:00,
2013-08-13 16:37:00,71.6,66.5,29.77,South,176,0.0,0.0,84,0.14,,SCT,0.31,WeatherDisplay:10.37,2013-08-13 20:37:00,
2013-08-13 16:38:00,71.6,66.5,29.77,South,176,0.0,0.0,84,0.14,,SCT,0.31,WeatherDisplay:10.37,2013-08-13 20:38:00,
2013-08-13 16:39:00,71.6,66.5,29.77,South,176,0.0,0.0,84,0.14,,SCT,0.31,WeatherDisplay:10.37,2013-08-13 20:39:00,
2013-08-13 16:40:00,71.6,66.5,29.77,South,176,0.0,0.0,84,0.14,,SCT,0.31,WeatherDisplay:10.37,2013-08-13 20:40:00,
2013-08-13 16:42:00,71.6,66.5,29.77,South,176,3.5,3.5,84,0.13,,SCT,0.31,WeatherDisplay:10.37,2013-08-13 20:42:00,
2013-08-13 16:43:00,71.6,66.5,29.77,South,176,0.0,0.0,84,0.10,,SCT,0.31,WeatherDisplay:10.37,2013-08-13 20:43:00,
2013-08-13 16:45:00,71.8,66.7,29.77,South,179,0.0,0.0,84,0.09,,SCT,0.31,WeatherDisplay:10.37,2013-08-13 20:45:00,
2013-08-13 16:46:00,71.8,66.7,29.77,South,179,0.0,0.3,84,0.09,,SCT,0.31,WeatherDisplay:10.37,2013-08-13 20:46:00,
2013-08-13 16:51:00,71.8,66.7,29.77,WSW,250,0.0,0.0,84,0.08,,SCT,0.31,WeatherDisplay:10.37,2013-08-13 20:51:00,
2013-08-13 16:53:00,71.8,66.7,29.77,SW,229,3.5,3.5,84,0.08,,SCT,0.31,WeatherDisplay:10.37,2013-08-13 20:53:00,
2013-08-13 16:54:00,71.8,66.7,29.77,SW,230,0.0,0.0,84,0.08,,SCT,0.31,WeatherDisplay:10.37,2013-08-13 20:54:00,
2013-08-13 16:56:00,71.8,66.7,29.77,SW,228,1.1,1.1,84,0.08,,SCT,0.31,WeatherDisplay:10.37,2013-08-13 20:56:00,
2013-08-13 16:58:00,71.8,66.7,29.77,SW,221,3.5,3.5,84,0.08,,SCT,0.31,WeatherDisplay:10.37,2013-08-13 20:58:00,
2013-08-13 17:01:00,71.8,66.7,29.77,SSW,207,5.0,5.0,84,0.06,,SCT,0.31,WeatherDisplay:10.37,2013-08-13 21:01:00,
2013-08-13 17:02:00,71.6,66.5,29.77,SSW,207,4.6,4.6,84,0.05,,SCT,0.31,WeatherDisplay:10.37,2013-08-13 21:02:00,
2013-08-13 17:03:00,71.6,66.5,29.77,WSW,239,6.9,6.9,84,0.04,,SCT,0.31,WeatherDisplay:10.37,2013-08-13 21:03:00,
2013-08-13 17:05:00,71.6,66.5,29.77,SW,217,4.6,4.6,84,0.03,,SCT,0.31,WeatherDisplay:10.37,2013-08-13 21:05:00,
2013-08-13 17:08:00,71.6,66.8,29.77,WSW,248,4.6,4.6,85,0.03,,SCT,0.31,WeatherDisplay:10.37,2013-08-13 21:08:00,
2013-08-13 17:09:00,71.6,66.8,29.77,South,185,5.8,5.8,85,0.03,,SCT,0.31,WeatherDisplay:10.37,2013-08-13 21:09:00,
2013-08-13 17:11:00,71.6,66.8,29.77,SSW,207,4.6,4.6,85,0.03,,SCT,0.31,WeatherDisplay:10.37,2013-08-13 21:11:00,
2013-08-13 17:13:00,71.8,67.0,29.77,SSW,208,6.9,6.9,85,0.02,,SCT,0.31,WeatherDisplay:10.37,2013-08-13 21:13:00,
2013-08-13 17:14:00,71.8,67.0,29.77,SSW,208,0.0,0.0,85,0.02,,SCT,0.31,WeatherDisplay:10.37,2013-08-13 21:14:00,
2013-08-13 17:15:00,71.8,67.0,29.77,SSW,210,0.0,0.0,85,0.02,,SCT,0.31,WeatherDisplay:10.37,2013-08-13 21:15:00,
2013-08-13 17:18:00,72.0,67.2,29.77,SSW,213,4.6,4.6,85,0.01,,SCT,0.31,WeatherDisplay:10.37,2013-08-13 21:18:00,
2013-08-13 17:20:00,72.1,67.3,29.77,WSW,243,3.5,3.5,85,0.01,,SCT,0.31,WeatherDisplay:10.37,2013-08-13 21:20:00,
2013-08-13 17:21:00,72.1,67.3,29.77,SW,214,4.0,4.0,85,0.01,,SCT,0.31,WeatherDisplay:10.37,2013-08-13 21:21:00,
2013-08-13 17:23:00,72.3,67.5,29.77,SSW,199,8.1,8.1,85,0.00,,SCT,0.31,WeatherDisplay:10.37,2013-08-13 21:23:00,
2013-08-13 17:26:00,72.3,67.5,29.77,SW,215,2.0,2.6,85,0.00,,SCT,0.31,WeatherDisplay:10.37,2013-08-13 21:26:00,
2013-08-13 17:28:00,72.5,67.7,29.77,WSW,249,3.5,3.5,85,0.00,,SCT,0.31,WeatherDisplay:10.37,2013-08-13 21:28:00,
2013-08-13 17:29:00,72.5,67.7,29.77,WSW,247,2.3,2.3,85,0.00,,SCT,0.31,WeatherDisplay:10.37,2013-08-13 21:29:00,
2013-08-13 17:30:00,72.5,67.7,29.77,WSW,247,0.0,0.0,85,0.00,,SCT,0.31,WeatherDisplay:10.37,2013-08-13 21:30:00,
2013-08-13 17:32:00,72.5,67.7,29.77,South,186,4.6,4.6,85,0.00,,SCT,0.31,WeatherDisplay:10.37,2013-08-13 21:32:00,
2013-08-13 17:35:00,72.7,67.9,29.77,SW,223,3.5,3.5,85,0.00,,SCT,0.31,WeatherDisplay:10.37,2013-08-13 21:35:00,
2013-08-13 17:37:00,72.7,67.9,29.77,SW,223,0.0,0.0,85,0.00,,SCT,0.31,WeatherDisplay:10.37,2013-08-13 21:37:00,
2013-08-13 17:39:00,72.8,68.0,29.77,WSW,239,0.0,0.0,85,0.00,,SCT,0.31,WeatherDisplay:10.37,2013-08-13 21:39:00,
2013-08-13 17:43:00,73.0,68.2,29.77,WSW,239,0.0,0.0,85,0.00,,SCT,0.31,WeatherDisplay:10.37,2013-08-13 21:43:00,
2013-08-13 17:44:00,73.2,68.4,29.77,WSW,239,0.0,0.0,85,0.00,,SCT,0.31,WeatherDisplay:10.37,2013-08-13 21:44:00,
2013-08-13 17:45:00,73.2,68.4,29.77,WSW,239,0.0,0.0,85,0.00,,SCT,0.31,WeatherDisplay:10.37,2013-08-13 21:45:00,
2013-08-13 17:46:00,73.3,68.5,29.76,WSW,239,0.0,0.0,85,0.00,,SCT,0.31,WeatherDisplay:10.37,2013-08-13 21:46:00,
2013-08-13 17:47:00,73.3,68.5,29.76,WSW,239,0.0,0.0,85,0.00,,SCT,0.31,WeatherDisplay:10.37,2013-08-13 21:47:00,
2013-08-13 17:49:00,73.5,68.7,29.76,WSW,246,1.1,0.0,85,0.00,,SCT,0.31,WeatherDisplay:10.37,2013-08-13 21:49:00,
2013-08-13 17:52:00,73.7,68.6,29.76,WSW,246,0.0,0.0,84,0.00,,SCT,0.31,WeatherDisplay:10.37,2013-08-13 21:52:00,
2013-08-13 17:53:00,73.7,68.6,29.76,WSW,246,0.0,0.0,84,0.00,,SCT,0.31,WeatherDisplay:10.37,2013-08-13 21:53:00,
2013-08-13 17:54:00,73.7,68.6,29.76,SSW,198,0.0,0.0,84,0.00,,SCT,0.31,WeatherDisplay:10.37,2013-08-13 21:54:00,
2013-08-13 17:55:00,73.7,68.6,29.76,WSW,248,4.6,4.6,84,0.00,,SCT,0.31,WeatherDisplay:10.37,2013-08-13 21:55:00,
2013-08-13 17:58:00,73.7,68.6,29.76,WSW,248,0.0,0.0,84,0.00,,SCT,0.31,WeatherDisplay:10.37,2013-08-13 21:58:00,
2013-08-13 17:59:00,73.9,68.8,29.76,WSW,248,0.0,0.0,84,0.00,,SCT,0.31,WeatherDisplay:10.37,2013-08-13 21:59:00,
2013-08-13 18:00:00,73.9,68.8,29.76,WSW,248,3.0,0.0,84,0.00,,SCT,0.31,WeatherDisplay:10.37,2013-08-13 22:00:00,
2013-08-13 18:02:00,73.9,68.8,29.77,WSW,248,2.3,2.3,84,0.00,,SCT,0.31,WeatherDisplay:10.37,2013-08-13 22:02:00,
2013-08-13 18:05:00,73.9,68.8,29.76,SW,232,3.5,3.5,84,0.00,,SCT,0.31,WeatherDisplay:10.37,2013-08-13 22:05:00,
2013-08-13 18:06:00,73.7,68.6,29.76,SW,235,3.5,3.5,84,0.00,,SCT,0.31,WeatherDisplay:10.37,2013-08-13 22:06:00,
2013-08-13 18:08:00,73.7,68.6,29.76,SW,236,0.0,0.0,84,0.00,,SCT,0.31,WeatherDisplay:10.37,2013-08-13 22:08:00,
2013-08-13 18:10:00,73.9,68.4,29.76,SW,236,0.0,0.0,83,0.00,,SCT,0.31,WeatherDisplay:10.37,2013-08-13 22:10:00,
2013-08-13 18:11:00,73.9,68.8,29.76,SW,236,0.0,0.0,84,0.00,,SCT,0.31,WeatherDisplay:10.37,2013-08-13 22:11:00,
2013-08-13 18:13:00,74.0,68.5,29.76,SW,236,0.0,0.0,83,0.00,,SCT,0.31,WeatherDisplay:10.37,2013-08-13 22:13:00,
2013-08-13 18:15:00,74.0,68.5,29.76,SW,236,1.1,1.1,83,0.00,,SCT,0.31,WeatherDisplay:10.37,2013-08-13 22:15:00,
2013-08-13 18:16:00,74.2,68.7,29.76,SW,236,2.3,2.3,83,0.00,,SCT,0.31,WeatherDisplay:10.37,2013-08-13 22:16:00,
2013-08-13 18:18:00,74.2,68.7,29.76,SW,236,0.0,0.0,83,0.00,,SCT,0.31,WeatherDisplay:10.37,2013-08-13 22:18:00,
2013-08-13 18:19:00,74.4,68.9,29.77,SW,236,0.0,0.0,83,0.00,,SCT,0.31,WeatherDisplay:10.37,2013-08-13 22:19:00,
2013-08-13 18:20:00,74.4,68.9,29.77,SW,236,0.0,0.0,83,0.00,,SCT,0.31,WeatherDisplay:10.37,2013-08-13 22:20:00,
2013-08-13 18:21:00,74.4,68.9,29.77,SW,236,0.0,0.0,83,0.00,,SCT,0.31,WeatherDisplay:10.37,2013-08-13 22:21:00,
2013-08-13 18:24:00,74.6,69.1,29.76,WSW,240,3.5,3.5,83,0.00,,SCT,0.31,WeatherDisplay:10.37,2013-08-13 22:24:00,
2013-08-13 18:25:00,74.6,69.1,29.76,WSW,240,3.5,3.5,83,0.00,,SCT,0.31,WeatherDisplay:10.37,2013-08-13 22:25:00,
2013-08-13 18:26:00,74.7,68.8,29.76,WSW,244,3.5,3.5,82,0.00,,SCT,0.31,WeatherDisplay:10.37,2013-08-13 22:26:00,
2013-08-13 18:27:00,74.7,68.8,29.76,WSW,244,2.3,2.3,82,0.00,,SCT,0.31,WeatherDisplay:10.37,2013-08-13 22:27:00,
2013-08-13 18:29:00,74.9,69.0,29.76,WSW,244,2.3,2.3,82,0.00,,SCT,0.31,WeatherDisplay:10.37,2013-08-13 22:29:00,
2013-08-13 18:32:00,75.1,69.2,29.76,WSW,244,0.0,0.0,82,0.00,,SCT,0.31,WeatherDisplay:10.37,2013-08-13 22:32:00,
2013-08-13 18:33:00,75.1,69.2,29.76,WSW,244,0.0,0.0,82,0.00,,SCT,0.31,WeatherDisplay:10.37,2013-08-13 22:33:00,
2013-08-13 18:36:00,75.3,69.4,29.76,WSW,244,0.0,0.0,82,0.00,,SCT,0.31,WeatherDisplay:10.37,2013-08-13 22:36:00,
2013-08-13 18:37:00,75.3,69.4,29.76,WSW,244,0.0,0.0,82,0.00,,SCT,0.31,WeatherDisplay:10.37,2013-08-13 22:37:00,
2013-08-13 18:38:00,75.3,69.4,29.76,WSW,244,0.0,0.0,82,0.00,,SCT,0.31,WeatherDisplay:10.37,2013-08-13 22:38:00,
2013-08-13 18:42:00,75.1,69.2,29.76,WSW,244,0.0,0.0,82,0.00,,SCT,0.31,WeatherDisplay:10.37,2013-08-13 22:42:00,
2013-08-13 18:43:00,75.3,69.4,29.76,WSW,244,0.0,0.0,82,0.00,,SCT,0.31,WeatherDisplay:10.37,2013-08-13 22:43:00,
2013-08-13 18:44:00,75.3,69.4,29.76,WSW,244,0.0,0.0,82,0.00,,SCT,0.31,WeatherDisplay:10.37,2013-08-13 22:44:00,
2013-08-13 18:48:00,75.3,69.4,29.76,WSW,244,0.0,0.0,82,0.00,,SCT,0.31,WeatherDisplay:10.37,2013-08-13 22:48:00,
2013-08-13 18:50:00,75.4,69.5,29.76,WSW,244,0.0,0.0,82,0.00,,SCT,0.31,WeatherDisplay:10.37,2013-08-13 22:50:00,
2013-08-13 18:53:00,75.6,69.7,29.76,WSW,242,0.0,0.0,82,0.00,,SCT,0.31,WeatherDisplay:10.37,2013-08-13 22:53:00,
2013-08-13 18:54:00,75.6,69.7,29.76,WSW,242,3.5,3.5,82,0.00,,SCT,0.31,WeatherDisplay:10.37,2013-08-13 22:54:00,
2013-08-13 18:55:00,75.6,69.4,29.76,WSW,242,3.5,3.5,81,0.00,,SCT,0.31,WeatherDisplay:10.37,2013-08-13 22:55:00,
2013-08-13 18:59:00,75.6,69.4,29.76,WSW,242,0.0,0.0,81,0.00,,SCT,0.31,WeatherDisplay:10.37,2013-08-13 22:59:00,
2013-08-13 19:00:00,75.6,69.7,29.76,WSW,242,0.0,0.0,82,0.00,,SCT,0.31,WeatherDisplay:10.37,2013-08-13 23:00:00,
2013-08-13 19:02:00,75.6,69.7,29.76,WSW,242,0.0,0.0,82,0.00,,SCT,0.31,WeatherDisplay:10.37,2013-08-13 23:02:00,
2013-08-13 19:03:00,75.6,69.7,29.77,WSW,242,0.0,0.0,82,0.00,,SCT,0.31,WeatherDisplay:10.37,2013-08-13 23:03:00,
2013-08-13 19:04:00,75.6,69.7,29.77,WSW,242,0.0,0.0,82,0.00,,SCT,0.31,WeatherDisplay:10.37,2013-08-13 23:04:00,
2013-08-13 19:06:00,75.6,69.7,29.76,WSW,242,0.0,0.0,82,0.00,,SCT,0.31,WeatherDisplay:10.37,2013-08-13 23:06:00,
2013-08-13 19:08:00,75.6,69.4,29.76,WSW,243,3.5,3.5,81,0.00,,SCT,0.31,WeatherDisplay:10.37,2013-08-13 23:08:00,
2013-08-13 19:09:00,75.6,69.4,29.76,WSW,243,3.5,3.5,81,0.00,,SCT,0.31,WeatherDisplay:10.37,2013-08-13 23:09:00,
2013-08-13 19:10:00,75.6,69.4,29.76,WSW,243,1.1,0.0,81,0.00,,SCT,0.31,WeatherDisplay:10.37,2013-08-13 23:10:00,
2013-08-13 19:11:00,75.6,69.4,29.76,WSW,248,5.0,5.0,81,0.00,,SCT,0.31,WeatherDisplay:10.37,2013-08-13 23:11:00,
2013-08-13 19:14:00,75.6,69.4,29.76,WSW,248,0.0,0.0,81,0.00,,SCT,0.31,WeatherDisplay:10.37,2013-08-13 23:14:00,
2013-08-13 19:15:00,75.4,69.2,29.76,WSW,248,0.0,0.0,81,0.00,,SCT,0.31,WeatherDisplay:10.37,2013-08-13 23:15:00,
2013-08-13 19:16:00,75.4,69.2,29.76,WSW,248,0.0,0.0,81,0.00,,SCT,0.31,WeatherDisplay:10.37,2013-08-13 23:16:00,
2013-08-13 19:17:00,75.4,69.2,29.76,WSW,248,0.0,0.0,81,0.00,,SCT,0.31,WeatherDisplay:10.37,2013-08-13 23:17:00,
2013-08-13 19:21:00,75.4,69.2,29.77,WSW,248,0.0,0.0,81,0.00,,SCT,0.31,WeatherDisplay:10.37,2013-08-13 23:21:00,
2013-08-13 19:23:00,75.3,69.1,29.77,WSW,248,0.0,0.0,81,0.00,,SCT,0.31,WeatherDisplay:10.37,2013-08-13 23:23:00,
2013-08-13 19:24:00,75.3,69.1,29.77,WSW,248,0.0,0.0,81,0.00,,SCT,0.31,WeatherDisplay:10.37,2013-08-13 23:24:00,
2013-08-13 19:26:00,75.3,69.1,29.77,WSW,248,0.0,0.0,81,0.00,,SCT,0.31,WeatherDisplay:10.37,2013-08-13 23:26:00,
2013-08-13 19:29:00,75.3,69.1,29.77,WSW,248,0.0,0.0,81,0.00,,SCT,0.31,WeatherDisplay:10.37,2013-08-13 23:29:00,
2013-08-13 19:32:00,75.1,68.9,29.77,WSW,247,0.0,0.0,81,0.00,,SCT,0.31,WeatherDisplay:10.37,2013-08-13 23:32:00,
2013-08-13 19:33:00,75.1,68.9,29.77,WSW,247,0.0,0.0,81,0.00,,SCT,0.31,WeatherDisplay:10.37,2013-08-13 23:33:00,
2013-08-13 19:35:00,74.9,68.7,29.76,WSW,247,0.0,0.0,81,0.00,,SCT,0.31,WeatherDisplay:10.37,2013-08-13 23:35:00,
2013-08-13 19:36:00,74.9,68.7,29.76,WSW,247,0.0,0.0,81,0.00,,SCT,0.31,WeatherDisplay:10.37,2013-08-13 23:36:00,
2013-08-13 19:38:00,74.7,68.5,29.76,WSW,247,0.0,0.0,81,0.00,,SCT,0.31,WeatherDisplay:10.37,2013-08-13 23:38:00,
2013-08-13 19:40:00,74.6,68.4,29.77,WSW,247,0.0,0.0,81,0.00,,SCT,0.31,WeatherDisplay:10.37,2013-08-13 23:40:00,
2013-08-13 19:42:00,74.6,68.4,29.77,WSW,248,0.0,0.0,81,0.00,,SCT,0.31,WeatherDisplay:10.37,2013-08-13 23:42:00,
2013-08-13 19:44:00,74.4,68.2,29.77,WSW,248,0.0,0.0,81,0.00,,SCT,0.31,WeatherDisplay:10.37,2013-08-13 23:44:00,
2013-08-13 19:45:00,74.4,68.2,29.77,WSW,248,0.0,0.0,81,0.00,,SCT,0.31,WeatherDisplay:10.37,2013-08-13 23:45:00,
2013-08-13 19:48:00,74.4,68.5,29.77,WSW,248,0.0,0.0,82,0.00,,SCT,0.31,WeatherDisplay:10.37,2013-08-13 23:48:00,
2013-08-13 19:49:00,74.2,68.3,29.76,WSW,248,0.0,0.0,82,0.00,,SCT,0.31,WeatherDisplay:10.37,2013-08-13 23:49:00,
2013-08-13 19:50:00,74.2,68.3,29.77,WSW,247,0.0,0.0,82,0.00,,SCT,0.31,WeatherDisplay:10.37,2013-08-13 23:50:00,
2013-08-13 19:53:00,74.0,68.2,29.77,WSW,247,0.0,0.0,82,0.00,,SCT,0.31,WeatherDisplay:10.37,2013-08-13 23:53:00,
2013-08-13 19:55:00,74.0,68.2,29.77,WSW,248,0.0,0.0,82,0.00,,SCT,0.31,WeatherDisplay:10.37,2013-08-13 23:55:00,
2013-08-13 19:58:00,74.0,68.2,29.77,WSW,248,0.0,0.0,82,0.00,,SCT,0.31,WeatherDisplay:10.37,2013-08-13 23:58:00,
2013-08-13 19:59:00,73.9,68.1,29.77,WSW,248,0.0,0.0,82,0.00,,SCT,0.31,WeatherDisplay:10.37,2013-08-13 23:59:00,
2013-08-13 20:00:00,73.9,68.1,29.77,WSW,247,0.0,0.0,82,0.00,,SCT,0.31,WeatherDisplay:10.37,2013-08-14 00:00:00,
2013-08-13 20:01:00,73.9,68.1,29.77,WSW,248,0.0,0.0,82,0.00,,SCT,0.31,WeatherDisplay:10.37,2013-08-14 00:01:00,
2013-08-13 20:03:00,73.9,68.1,29.77,WSW,247,0.0,0.0,82,0.00,,SCT,0.31,WeatherDisplay:10.37,2013-08-14 00:03:00,
2013-08-13 20:04:00,73.7,67.9,29.77,WSW,247,0.0,0.0,82,0.00,,SCT,0.31,WeatherDisplay:10.37,2013-08-14 00:04:00,
2013-08-13 20:06:00,73.7,67.9,29.77,WSW,247,0.0,0.0,82,0.00,,SCT,0.31,WeatherDisplay:10.37,2013-08-14 00:06:00,
2013-08-13 20:07:00,73.7,67.9,29.78,WSW,247,0.0,0.0,82,0.00,,SCT,0.31,WeatherDisplay:10.37,2013-08-14 00:07:00,
2013-08-13 20:09:00,73.5,68.0,29.78,WSW,247,0.0,0.0,83,0.00,,SCT,0.31,WeatherDisplay:10.37,2013-08-14 00:09:00,
2013-08-13 20:12:00,73.3,67.8,29.78,WSW,248,0.0,0.0,83,0.00,,SCT,0.31,WeatherDisplay:10.37,2013-08-14 00:12:00,
2013-08-13 20:16:00,73.2,67.7,29.78,WSW,247,0.0,0.0,83,0.00,,SCT,0.31,WeatherDisplay:10.37,2013-08-14 00:16:00,
2013-08-13 20:18:00,73.0,67.5,29.78,WSW,248,0.0,0.0,83,0.00,,SCT,0.31,WeatherDisplay:10.37,2013-08-14 00:18:00,
2013-08-13 20:21:00,72.8,67.3,29.78,WSW,248,0.0,0.0,83,0.00,,SCT,0.31,WeatherDisplay:10.37,2013-08-14 00:21:00,
2013-08-13 20:23:00,72.8,67.3,29.78,WSW,248,0.0,0.0,83,0.00,,SCT,0.31,WeatherDisplay:10.37,2013-08-14 00:23:00,
2013-08-13 20:24:00,72.7,67.2,29.78,WSW,248,0.0,0.0,83,0.00,,SCT,0.31,WeatherDisplay:10.37,2013-08-14 00:24:00,
2013-08-13 20:28:00,72.5,67.0,29.77,WSW,247,0.0,0.0,83,0.00,,SCT,0.31,WeatherDisplay:10.37,2013-08-14 00:28:00,
2013-08-13 20:29:00,72.5,67.0,29.78,WSW,248,0.0,0.0,83,0.00,,SCT,0.31,WeatherDisplay:10.37,2013-08-14 00:29:00,
2013-08-13 20:33:00,72.3,66.8,29.78,WSW,248,0.0,0.0,83,0.00,,SCT,0.31,WeatherDisplay:10.37,2013-08-14 00:33:00,
2013-08-13 20:34:00,72.3,66.8,29.78,WSW,248,0.0,0.0,83,0.00,,SCT,0.31,WeatherDisplay:10.37,2013-08-14 00:34:00,
2013-08-13 20:35:00,72.3,66.8,29.78,WSW,248,0.0,0.0,83,0.00,,SCT,0.31,WeatherDisplay:10.37,2013-08-14 00:35:00,
2013-08-13 20:36:00,72.3,66.8,29.78,WSW,247,0.0,0.0,83,0.00,,SCT,0.31,WeatherDisplay:10.37,2013-08-14 00:36:00,
2013-08-13 20:39:00,72.1,66.6,29.78,WSW,247,0.0,0.0,83,0.00,,SCT,0.31,WeatherDisplay:10.37,2013-08-14 00:39:00,
2013-08-13 20:40:00,72.1,66.6,29.78,WSW,248,0.0,0.0,83,0.00,,SCT,0.31,WeatherDisplay:10.37,2013-08-14 00:40:00,
2013-08-13 20:41:00,72.1,66.6,29.78,WSW,248,0.0,0.0,83,0.00,,SCT,0.31,WeatherDisplay:10.37,2013-08-14 00:41:00,
2013-08-13 20:43:00,72.0,66.6,29.78,WSW,248,0.0,0.0,83,0.00,,SCT,0.31,WeatherDisplay:10.37,2013-08-14 00:43:00,
2013-08-13 20:45:00,72.0,66.9,29.78,WSW,248,0.0,0.0,84,0.00,,SCT,0.31,WeatherDisplay:10.37,2013-08-14 00:45:00,
2013-08-13 20:46:00,72.0,66.9,29.78,WSW,248,0.0,0.0,84,0.00,,SCT,0.31,WeatherDisplay:10.37,2013-08-14 00:46:00,
2013-08-13 20:48:00,71.8,66.7,29.78,WSW,248,0.0,0.0,84,0.00,,SCT,0.31,WeatherDisplay:10.37,2013-08-14 00:48:00,
2013-08-13 20:50:00,71.8,66.7,29.78,WSW,248,0.0,0.0,84,0.00,,SCT,0.31,WeatherDisplay:10.37,2013-08-14 00:50:00,
2013-08-13 20:51:00,71.8,66.7,29.78,WSW,247,0.0,0.0,84,0.00,,SCT,0.31,WeatherDisplay:10.37,2013-08-14 00:51:00,
2013-08-13 20:53:00,71.8,66.7,29.78,WSW,248,0.0,0.0,84,0.00,,SCT,0.31,WeatherDisplay:10.37,2013-08-14 00:53:00,
2013-08-13 20:55:00,71.6,66.5,29.78,WSW,247,0.0,0.0,84,0.00,,SCT,0.31,WeatherDisplay:10.37,2013-08-14 00:55:00,
2013-08-13 20:56:00,71.6,66.5,29.78,WSW,247,0.0,0.0,84,0.00,,SCT,0.31,WeatherDisplay:10.37,2013-08-14 00:56:00,
2013-08-13 20:57:00,71.6,66.5,29.78,WSW,248,0.0,0.0,84,0.00,,SCT,0.31,WeatherDisplay:10.37,2013-08-14 00:57:00,
2013-08-13 20:58:00,71.6,66.5,29.78,WSW,247,0.0,0.0,84,0.00,,SCT,0.31,WeatherDisplay:10.37,2013-08-14 00:58:00,
2013-08-13 20:59:00,71.6,66.5,29.78,WSW,248,0.0,0.0,84,0.00,,SCT,0.31,WeatherDisplay:10.37,2013-08-14 00:59:00,
2013-08-13 21:02:00,71.5,66.4,29.78,WSW,248,0.0,0.0,84,0.00,,SCT,0.31,WeatherDisplay:10.37,2013-08-14 01:02:00,
2013-08-13 21:03:00,71.5,66.4,29.78,WSW,247,0.0,0.0,84,0.00,,SCT,0.31,WeatherDisplay:10.37,2013-08-14 01:03:00,
2013-08-13 21:04:00,71.5,66.4,29.78,WSW,248,0.0,0.0,84,0.00,,SCT,0.31,WeatherDisplay:10.37,2013-08-14 01:04:00,
2013-08-13 21:05:00,71.5,66.4,29.78,WSW,248,0.0,0.0,84,0.00,,SCT,0.31,WeatherDisplay:10.37,2013-08-14 01:05:00,
2013-08-13 21:08:00,71.5,66.4,29.77,WSW,248,0.0,0.0,84,0.00,,SCT,0.31,WeatherDisplay:10.37,2013-08-14 01:08:00,
2013-08-13 21:10:00,71.3,66.2,29.77,WSW,247,0.0,0.0,84,0.00,,SCT,0.31,WeatherDisplay:10.37,2013-08-14 01:10:00,
2013-08-13 21:11:00,71.3,66.2,29.77,WSW,248,0.0,0.0,84,0.00,,SCT,0.31,WeatherDisplay:10.37,2013-08-14 01:11:00,
2013-08-13 21:14:00,71.3,66.2,29.77,WSW,247,0.0,0.0,84,0.00,,SCT,0.31,WeatherDisplay:10.37,2013-08-14 01:14:00,
2013-08-13 21:15:00,71.3,66.2,29.77,WSW,248,0.0,0.0,84,0.00,,SCT,0.31,WeatherDisplay:10.37,2013-08-14 01:15:00,
2013-08-13 21:16:00,71.3,66.2,29.77,WSW,248,0.0,0.0,84,0.00,,SCT,0.31,WeatherDisplay:10.37,2013-08-14 01:16:00,
2013-08-13 21:20:00,71.1,66.0,29.77,WSW,248,0.0,0.0,84,0.00,,SCT,0.31,WeatherDisplay:10.37,2013-08-14 01:20:00,
2013-08-13 21:23:00,71.1,66.4,29.77,WSW,248,0.0,0.0,85,0.00,,SCT,0.31,WeatherDisplay:10.37,2013-08-14 01:23:00,
2013-08-13 21:25:00,71.1,66.4,29.77,WSW,247,0.0,0.0,85,0.00,,SCT,0.31,WeatherDisplay:10.37,2013-08-14 01:25:00,
2013-08-13 21:28:00,71.1,66.4,29.77,WSW,248,0.0,0.0,85,0.00,,SCT,0.31,WeatherDisplay:10.37,2013-08-14 01:28:00,
2013-08-13 21:30:00,71.1,66.4,29.77,WSW,248,0.0,0.0,85,0.00,,SCT,0.31,WeatherDisplay:10.37,2013-08-14 01:30:00,
2013-08-13 21:31:00,71.1,66.4,29.77,WSW,248,0.0,0.0,85,0.00,,SCT,0.31,WeatherDisplay:10.37,2013-08-14 01:31:00,
2013-08-13 21:35:00,71.1,66.4,29.78,WSW,248,0.0,0.0,85,0.00,,SCT,0.31,WeatherDisplay:10.37,2013-08-14 01:35:00,
2013-08-13 21:36:00,71.1,66.4,29.78,WSW,248,0.0,0.0,85,0.00,,SCT,0.31,WeatherDisplay:10.37,2013-08-14 01:36:00,
2013-08-13 21:37:00,71.1,66.4,29.78,WSW,248,0.0,0.0,85,0.00,,SCT,0.31,WeatherDisplay:10.37,2013-08-14 01:37:00,
2013-08-13 21:39:00,71.1,66.4,29.78,WSW,247,0.0,0.0,85,0.00,,SCT,0.31,WeatherDisplay:10.37,2013-08-14 01:39:00,
2013-08-13 21:41:00,71.1,66.4,29.77,WSW,248,0.0,0.0,85,0.00,,SCT,0.31,WeatherDisplay:10.37,2013-08-14 01:41:00,
2013-08-13 21:42:00,71.1,66.4,29.77,WSW,248,0.0,0.0,85,0.00,,SCT,0.31,WeatherDisplay:10.37,2013-08-14 01:42:00,
2013-08-13 21:44:00,71.1,66.4,29.78,WSW,247,0.0,0.0,85,0.00,,SCT,0.31,WeatherDisplay:10.37,2013-08-14 01:44:00,
2013-08-13 21:47:00,71.1,66.4,29.78,WSW,248,0.0,0.0,85,0.00,,SCT,0.31,WeatherDisplay:10.37,2013-08-14 01:47:00,
2013-08-13 21:49:00,71.1,66.4,29.78,WSW,248,0.0,0.0,85,0.00,,SCT,0.31,WeatherDisplay:10.37,2013-08-14 01:49:00,
2013-08-13 21:51:00,70.9,66.2,29.78,WSW,247,0.0,0.0,85,0.00,,SCT,0.31,WeatherDisplay:10.37,2013-08-14 01:51:00,
2013-08-13 21:52:00,71.1,66.4,29.78,WSW,248,0.0,0.0,85,0.00,,SCT,0.31,WeatherDisplay:10.37,2013-08-14 01:52:00,
2013-08-13 21:55:00,71.1,66.7,29.78,WSW,247,0.0,0.0,86,0.00,,SCT,0.31,WeatherDisplay:10.37,2013-08-14 01:55:00,
2013-08-13 21:56:00,71.1,66.7,29.78,WSW,247,0.0,0.0,86,0.00,,SCT,0.31,WeatherDisplay:10.37,2013-08-14 01:56:00,
2013-08-13 21:57:00,71.1,66.7,29.78,WSW,247,0.0,0.0,86,0.00,,SCT,0.31,WeatherDisplay:10.37,2013-08-14 01:57:00,
2013-08-13 21:58:00,71.1,66.7,29.78,WSW,247,0.0,0.0,86,0.00,,SCT,0.31,WeatherDisplay:10.37,2013-08-14 01:58:00,
2013-08-13 22:00:00,71.1,66.7,29.78,WSW,247,0.0,0.0,86,0.00,,SCT,0.31,WeatherDisplay:10.37,2013-08-14 02:00:00,
2013-08-13 22:03:00,71.1,66.7,29.78,WSW,247,0.0,0.0,86,0.00,,SCT,0.31,WeatherDisplay:10.37,2013-08-14 02:03:00,
2013-08-13 22:04:00,71.3,66.9,29.78,WSW,247,0.0,0.0,86,0.00,,SCT,0.31,WeatherDisplay:10.37,2013-08-14 02:04:00,
2013-08-13 22:05:00,71.3,66.9,29.78,WSW,247,0.0,0.0,86,0.00,,SCT,0.31,WeatherDisplay:10.37,2013-08-14 02:05:00,
2013-08-13 22:06:00,71.3,66.9,29.78,WSW,247,0.0,0.0,86,0.00,,SCT,0.31,WeatherDisplay:10.37,2013-08-14 02:06:00,
2013-08-13 22:09:00,71.3,66.9,29.79,WSW,247,0.0,0.0,86,0.00,,SCT,0.31,WeatherDisplay:10.37,2013-08-14 02:09:00,
2013-08-13 22:11:00,71.3,66.9,29.79,WSW,247,0.0,0.0,86,0.00,,SCT,0.31,WeatherDisplay:10.37,2013-08-14 02:11:00,
2013-08-13 22:12:00,71.3,66.9,29.79,WSW,247,0.0,0.0,86,0.00,,SCT,0.31,WeatherDisplay:10.37,2013-08-14 02:12:00,
2013-08-13 22:13:00,71.3,66.9,29.79,WSW,247,0.0,0.0,86,0.00,,SCT,0.31,WeatherDisplay:10.37,2013-08-14 02:13:00,
2013-08-13 22:16:00,71.3,66.9,29.79,WSW,247,0.0,0.0,86,0.00,,SCT,0.31,WeatherDisplay:10.37,2013-08-14 02:16:00,
2013-08-13 22:18:00,71.3,66.9,29.78,WSW,247,0.0,0.0,86,0.00,,SCT,0.31,WeatherDisplay:10.37,2013-08-14 02:18:00,
2013-08-13 22:20:00,71.3,66.9,29.78,WSW,247,0.0,0.0,86,0.00,,SCT,0.31,WeatherDisplay:10.37,2013-08-14 02:20:00,
2013-08-13 22:22:00,71.3,66.9,29.79,WSW,247,0.0,0.0,86,0.00,,SCT,0.31,WeatherDisplay:10.37,2013-08-14 02:22:00,
2013-08-13 22:25:00,71.3,66.9,29.79,WSW,247,0.0,0.0,86,0.00,,SCT,0.31,WeatherDisplay:10.37,2013-08-14 02:25:00,
2013-08-13 22:26:00,71.3,66.9,29.79,WSW,250,0.0,0.0,86,0.00,,SCT,0.31,WeatherDisplay:10.37,2013-08-14 02:26:00,
2013-08-13 22:27:00,71.3,66.9,29.79,WNW,286,3.5,3.5,86,0.00,,SCT,0.31,WeatherDisplay:10.37,2013-08-14 02:27:00,
2013-08-13 22:29:00,71.3,66.9,29.79,WNW,286,0.0,0.0,86,0.00,,SCT,0.31,WeatherDisplay:10.37,2013-08-14 02:29:00,
2013-08-13 22:30:00,71.3,66.9,29.79,WNW,286,0.0,0.0,86,0.00,,SCT,0.31,WeatherDisplay:10.37,2013-08-14 02:30:00,
2013-08-13 22:32:00,71.5,67.1,29.80,NE,46,6.9,6.9,86,0.00,,SCT,0.31,WeatherDisplay:10.37,2013-08-14 02:32:00,
2013-08-13 22:33:00,71.3,66.9,29.80,NE,38,5.8,5.8,86,0.01,RA,SCT,0.32,WeatherDisplay:10.37,2013-08-14 02:33:00,
2013-08-13 22:34:00,71.3,66.9,29.80,NE,38,5.8,5.8,86,0.01,RA,SCT,0.32,WeatherDisplay:10.37,2013-08-14 02:34:00,
2013-08-13 22:37:00,71.1,66.4,29.80,NE,38,3.5,3.5,85,0.01,RA,SCT,0.32,WeatherDisplay:10.37,2013-08-14 02:37:00,
2013-08-13 22:38:00,70.9,66.2,29.80,NE,38,2.3,2.3,85,0.02,RA,SCT,0.33,WeatherDisplay:10.37,2013-08-14 02:38:00,
2013-08-13 22:40:00,70.8,66.1,29.80,NE,38,0.0,0.0,85,0.03,RA,SCT,0.34,WeatherDisplay:10.37,2013-08-14 02:40:00,
2013-08-13 22:43:00,70.6,65.9,29.80,NE,38,0.0,0.0,85,0.03,RA,SCT,0.34,WeatherDisplay:10.37,2013-08-14 02:43:00,
2013-08-13 22:45:00,70.4,65.7,29.80,NE,38,0.0,0.0,85,0.03,RA,SCT,0.34,WeatherDisplay:10.37,2013-08-14 02:45:00,
2013-08-13 22:46:00,70.4,65.7,29.80,NE,38,0.0,0.0,85,0.03,RA,SCT,0.34,WeatherDisplay:10.37,2013-08-14 02:46:00,
2013-08-13 22:48:00,70.3,65.6,29.80,NE,38,0.0,0.0,85,0.03,RA,SCT,0.34,WeatherDisplay:10.37,2013-08-14 02:48:00,
2013-08-13 22:49:00,70.1,65.4,29.80,NE,38,0.0,0.0,85,0.03,,SCT,0.34,WeatherDisplay:10.37,2013-08-14 02:49:00,
2013-08-13 22:51:00,69.9,65.2,29.80,NE,38,0.0,0.0,85,0.03,,SCT,0.34,WeatherDisplay:10.37,2013-08-14 02:51:00,
2013-08-13 22:53:00,69.9,65.2,29.80,NE,38,0.0,0.0,85,0.03,,SCT,0.34,WeatherDisplay:10.37,2013-08-14 02:53:00,
2013-08-13 22:58:00,69.6,64.9,29.81,NE,38,0.0,0.0,85,0.03,,SCT,0.34,WeatherDisplay:10.37,2013-08-14 02:58:00,
2013-08-13 22:59:00,69.6,64.9,29.81,NE,38,0.0,0.0,85,0.03,,SCT,0.34,WeatherDisplay:10.37,2013-08-14 02:59:00,
2013-08-13 23:00:00,69.6,64.9,29.81,NE,38,0.0,0.0,85,0.03,,SCT,0.34,WeatherDisplay:10.37,2013-08-14 03:00:00,
2013-08-13 23:02:00,69.4,64.7,29.81,NE,38,0.0,0.0,85,0.03,,SCT,0.34,WeatherDisplay:10.37,2013-08-14 03:02:00,
2013-08-13 23:06:00,69.3,64.6,29.81,NE,38,0.0,0.0,85,0.03,,SCT,0.34,WeatherDisplay:10.37,2013-08-14 03:06:00,
2013-08-13 23:07:00,69.3,64.6,29.81,NE,38,0.0,0.0,85,0.03,,SCT,0.34,WeatherDisplay:10.37,2013-08-14 03:07:00,
2013-08-13 23:09:00,69.3,64.6,29.81,NE,38,0.0,0.0,85,0.03,,SCT,0.34,WeatherDisplay:10.37,2013-08-14 03:09:00,
2013-08-13 23:10:00,69.3,64.9,29.81,NE,38,0.0,0.0,86,0.03,,SCT,0.34,WeatherDisplay:10.37,2013-08-14 03:10:00,
2013-08-13 23:12:00,69.1,64.7,29.81,NE,38,0.0,0.0,86,0.03,,SCT,0.34,WeatherDisplay:10.37,2013-08-14 03:12:00,
2013-08-13 23:15:00,69.1,64.7,29.81,NE,38,0.0,0.0,86,0.03,,SCT,0.34,WeatherDisplay:10.37,2013-08-14 03:15:00,
2013-08-13 23:16:00,69.1,64.7,29.81,NE,38,0.0,0.0,86,0.03,,SCT,0.34,WeatherDisplay:10.37,2013-08-14 03:16:00,
2013-08-13 23:17:00,69.1,64.7,29.81,NE,38,0.0,0.0,86,0.03,,SCT,0.34,WeatherDisplay:10.37,2013-08-14 03:17:00,
2013-08-13 23:20:00,69.1,64.7,29.81,NE,38,0.0,0.0,86,0.03,,SCT,0.34,WeatherDisplay:10.37,2013-08-14 03:20:00,
2013-08-13 23:21:00,69.1,64.7,29.81,NE,38,0.0,0.0,86,0.03,,SCT,0.34,WeatherDisplay:10.37,2013-08-14 03:21:00,
2013-08-13 23:23:00,69.1,64.7,29.81,NE,38,0.0,0.0,86,0.03,,SCT,0.34,WeatherDisplay:10.37,2013-08-14 03:23:00,
2013-08-13 23:25:00,68.9,64.5,29.81,NE,38,0.0,0.0,86,0.03,,SCT,0.34,WeatherDisplay:10.37,2013-08-14 03:25:00,
2013-08-13 23:26:00,68.9,64.5,29.81,NE,38,0.0,0.0,86,0.03,,SCT,0.34,WeatherDisplay:10.37,2013-08-14 03:26:00,
2013-08-13 23:30:00,68.9,64.5,29.81,NE,38,0.0,0.0,86,0.03,,SCT,0.34,WeatherDisplay:10.37,2013-08-14 03:30:00,
2013-08-13 23:31:00,68.9,64.5,29.81,NE,38,0.0,0.0,86,0.03,,SCT,0.34,WeatherDisplay:10.37,2013-08-14 03:31:00,
2013-08-13 23:32:00,68.9,64.5,29.81,NE,38,0.0,0.0,86,0.03,,SCT,0.34,WeatherDisplay:10.37,2013-08-14 03:32:00,
2013-08-13 23:33:00,68.9,64.5,29.81,NE,38,0.0,0.0,86,0.02,,SCT,0.34,WeatherDisplay:10.37,2013-08-14 03:33:00,
2013-08-13 23:35:00,68.9,64.5,29.81,NE,38,0.0,0.0,86,0.02,,SCT,0.34,WeatherDisplay:10.37,2013-08-14 03:35:00,
2013-08-13 23:36:00,68.9,64.5,29.81,NE,38,0.0,0.0,86,0.02,,SCT,0.34,WeatherDisplay:10.37,2013-08-14 03:36:00,
2013-08-13 23:37:00,68.9,64.5,29.81,NE,38,0.0,0.0,86,0.02,,SCT,0.34,WeatherDisplay:10.37,2013-08-14 03:37:00,
2013-08-13 23:38:00,68.9,64.5,29.81,NE,38,0.0,0.0,86,0.01,,SCT,0.34,WeatherDisplay:10.37,2013-08-14 03:38:00,
2013-08-13 23:40:00,68.9,64.5,29.81,NE,38,0.0,0.0,86,0.00,,SCT,0.34,WeatherDisplay:10.37,2013-08-14 03:40:00,
2013-08-13 23:42:00,68.9,64.5,29.81,NE,38,0.0,0.0,86,0.00,,SCT,0.34,WeatherDisplay:10.37,2013-08-14 03:42:00,
2013-08-13 23:44:00,68.9,64.5,29.81,NE,38,0.0,0.0,86,0.00,,SCT,0.34,WeatherDisplay:10.37,2013-08-14 03:44:00,
2013-08-13 23:46:00,68.9,64.5,29.81,NE,38,0.0,0.0,86,0.00,,SCT,0.34,WeatherDisplay:10.37,2013-08-14 03:46:00,
2013-08-13 23:47:00,68.9,64.5,29.81,NE,38,0.0,0.0,86,0.00,,SCT,0.34,WeatherDisplay:10.37,2013-08-14 03:47:00,
2013-08-13 23:48:00,68.9,64.5,29.81,NE,38,0.0,0.0,86,0.00,,SCT,0.34,WeatherDisplay:10.37,2013-08-14 03:48:00,
2013-08-13 23:50:00,68.9,64.5,29.81,NE,38,0.0,0.0,86,0.00,,SCT,0.34,WeatherDisplay:10.37,2013-08-14 03:50:00,
2013-08-13 23:51:00,68.9,64.5,29.81,NE,38,0.0,0.0,86,0.00,,SCT,0.34,WeatherDisplay:10.37,2013-08-14 03:51:00,
2013-08-13 23:53:00,68.9,64.9,29.81,NE,38,0.0,0.0,87,0.00,,SCT,0.34,WeatherDisplay:10.37,2013-08-14 03:53:00,
2013-08-13 23:54:00,68.9,64.9,29.81,NE,38,0.0,0.0,87,0.00,,SCT,0.34,WeatherDisplay:10.37,2013-08-14 03:54:00,
2013-08-13 23:57:00,68.9,64.9,29.81,NE,38,0.0,0.0,87,0.00,,SCT,0.34,WeatherDisplay:10.37,2013-08-14 03:57:00,
2013-08-13 23:58:00,68.9,64.9,29.81,NE,38,0.0,0.0,87,0.00,,SCT,0.34,WeatherDisplay:10.37,2013-08-14 03:58:00,